Flight Track Log - Related Links

Times and Time Zones

All times are in EDT time to prevent confusion due to time zone crossing. See the N778AN flight status page for this flight to view local times or setup timezone preferences in your user account.

Time Position Orientation Groundspeed Altitude Reporting Facility
EDT Latitude Longitude Course Direction KTS MPH feet Rate Location/Type
Mon 09:18:57 AM 51.4770 -0.5050 269° West 175 201 1,000  Level FlightAware ADS-B
Mon 09:19:15 AM 51.4774 -0.5301 269° West 180 207 400 2,538 Descending FlightAware UK
Mon 09:19:23 AM 51.4773 -0.5394 269° West 170 196 2,100 9,273 Climbing FlightAware ADS-B
Mon 09:19:26 AM 51.4773 -0.5439 270° West 171 197 2,100 857 Level FlightAware ADS-B
Mon 09:19:30 AM 51.4775 -0.5485 274° West 173 199 2,200 2,250 Climbing FlightAware ADS-B
Mon 09:19:34 AM 51.4780 -0.5535 279° West 172 198 2,400 1,636 Climbing FlightAware ADS-B
Mon 09:19:41 AM 51.4797 -0.5617 288° West 174 200 2,500 1,200 Climbing FlightAware ADS-B
Mon 09:19:44 AM 51.4808 -0.5654 296° West 175 201 2,600 2,000 Climbing FlightAware ADS-B
Mon 09:19:47 AM 51.4821 -0.5695 297° West 176 203 2,700 1,286 Climbing FlightAware ADS-B
Mon 09:19:58 AM 51.4868 -0.5817 302° West 176 203 2,900 1,579 Climbing FlightAware ADS-B
Mon 09:20:06 AM 51.4901 -0.5901 302° West 175 201 3,200 1,500 Climbing FlightAware ADS-B
Mon 09:20:14 AM 51.4935 -0.5997 299° West 176 203 3,300 750 Climbing FlightAware ADS-B
Mon 09:20:30 AM 51.4995 -0.6181 298° West 190 219 3,500 563 Climbing FlightAware ADS-B
Mon 09:20:46 AM 51.5064 -0.6389 298° West 208 239 3,600 581 Climbing FlightAware ADS-B
Mon 09:21:01 AM 51.5134 -0.6602 298° West 222 255 3,800 1,000 Climbing FlightAware ADS-B
Mon 09:21:04 AM 51.5152 -0.6654 299° West 223 257 3,900 1,714 Climbing FlightAware ADS-B
Mon 09:21:08 AM 51.5173 -0.6703 304° West 227 261 4,000 1,500 Climbing FlightAware ADS-B
Mon 09:21:12 AM 51.5203 -0.6759 311° West 229 264 4,100 667 Climbing FlightAware ADS-B
Mon 09:21:17 AM 51.5237 -0.6808 318° Northwest 235 270 4,100 750 Level FlightAware ADS-B
Mon 09:21:20 AM 51.5270 -0.6845 325° Northwest 241 277 4,200 1,000 Climbing FlightAware ADS-B
Mon 09:21:23 AM 51.5303 -0.6873 332° Northwest 246 283 4,200  Level FlightAware ADS-B
Mon 09:21:28 AM 51.5353 -0.6903 340° North 251 289 4,200 667 Level FlightAware ADS-B
Mon 09:21:32 AM 51.5399 -0.6919 348° North 254 292 4,300 1,714 Climbing FlightAware ADS-B
Mon 09:21:35 AM 51.5438 -0.6924 356° North 257 296 4,400 2,000 Climbing FlightAware ADS-B
Mon 09:21:38 AM 51.5475 -0.6923 North 259 298 4,500 1,500 Climbing FlightAware ADS-B
Mon 09:21:43 AM 51.5527 -0.6915 North 262 302 4,600 2,000 Climbing FlightAware ADS-B
Mon 09:21:53 AM 51.5648 -0.6890 North 262 302 5,000 2,333 Climbing FlightAware ADS-B
Mon 09:22:01 AM 51.5750 -0.6876 North 261 300 5,300 1,909 Climbing FlightAware ADS-B
Mon 09:22:15 AM 51.5909 -0.6872 North 257 296 5,700 1,846 Climbing FlightAware ADS-B
Mon 09:22:27 AM 51.6062 -0.6878 359° North 260 299 6,100 2,000 Climbing FlightAware ADS-B
Mon 09:22:42 AM 51.6243 -0.6891 357° North 260 299 6,600 1,714 Climbing FlightAware ADS-B
Mon 09:22:55 AM 51.6389 -0.6905 357° North 264 304 6,900 857 Climbing FlightAware ADS-B
Mon 09:23:10 AM 51.6576 -0.6924 356° North 266 306 7,000 800 Climbing FlightAware ADS-B
Mon 09:23:25 AM 51.6762 -0.6945 356° North 271 312 7,300 2,000 Climbing FlightAware ADS-B
Mon 09:23:40 AM 51.6950 -0.6965 356° North 264 304 8,000 2,700 Climbing FlightAware ADS-B
Mon 09:23:45 AM 51.7011 -0.6969 358° North 264 304 8,200 2,400 Climbing FlightAware ADS-B
Mon 09:23:50 AM 51.7073 -0.6968 North 266 306 8,400 2,250 Climbing FlightAware ADS-B
Mon 09:23:53 AM 51.7112 -0.6963 North 268 308 8,500 1,500 Climbing FlightAware ADS-B
Mon 09:23:58 AM 51.7164 -0.6949 North 270 311 8,600 1,800 Climbing FlightAware ADS-B
Mon 09:24:13 AM 51.7359 -0.6877 13° North 277 319 9,100 1,846 Climbing FlightAware ADS-B
Mon 09:24:24 AM 51.7495 -0.6823 14° North 279 321 9,400 1,615 Climbing FlightAware ADS-B
Mon 09:24:39 AM 51.7685 -0.6747 14° North 282 325 9,800 -909 Climbing FlightAware ADS-B
Mon 09:24:57 AM 51.7904 -0.6659 14° North 294 338 8,900 1,742 Descending FlightAware UK
Mon 09:25:10 AM 51.8077 -0.6592 14° North 302 348 10,700 3,209 Climbing FlightAware ADS-B
Mon 09:25:40 AM 51.8510 -0.6420 14° North 331 381 11,200 -894 Climbing FlightAware ADS-B
Mon 09:25:57 AM 51.8765 -0.6317 14° North 350 403 10,000 1,355 Descending FlightAware UK
Mon 09:26:11 AM 51.8994 -0.6225 14° North 353 406 11,900 1,400 Climbing FlightAware ADS-B
Mon 09:26:27 AM 51.9242 -0.6124 14° North 370 426 10,700 1,355 Descending FlightAware UK
Mon 09:26:42 AM 51.9492 -0.6027 14° North 373 429 12,600 2,000 Climbing FlightAware ADS-B
Mon 09:26:57 AM 51.9748 -0.5924 14° North 382 440 11,700 2,400 Descending FlightAware UK
Mon 09:27:12 AM 52.0008 -0.5817 14° North 379 436 13,800 4,043 Climbing FlightAware ADS-B
Mon 09:27:43 AM 52.0526 -0.5602 14° North 390 449 14,800 1,920 Climbing FlightAware ADS-B
Mon 09:28:02 AM 52.0867 -0.5471 13° North 392 451 15,400 1,950 Climbing FlightAware ADS-B
Mon 09:28:23 AM 52.1242 -0.5437 North 387 445 16,100 2,000 Climbing FlightAware ADS-B
Mon 09:28:35 AM 52.1453 -0.5475 354° North 382 440 16,500 2,182 Climbing FlightAware ADS-B
Mon 09:28:45 AM 52.1623 -0.5537 347° North 379 436 16,900 2,182 Climbing FlightAware ADS-B
Mon 09:28:57 AM 52.1821 -0.5649 341° North 375 432 17,300 1,800 Climbing FlightAware ADS-B
Mon 09:29:05 AM 52.1942 -0.5740 335° Northwest 374 430 17,500 1,875 Climbing FlightAware ADS-B
Mon 09:29:13 AM 52.2068 -0.5856 331° Northwest 372 428 17,800 2,053 Climbing FlightAware ADS-B
Mon 09:29:43 AM 52.2522 -0.6302 329° Northwest 381 438 18,800  Climbing FlightAware ADS-B
Mon 09:30:03 AM 52.2824 -0.6557 329° Northwest 420 483 17,800 1,875 Descending FlightAware UK
Mon 09:30:15 AM 52.3018 -0.6710 329° Northwest 389 448 19,800 4,286 Climbing FlightAware ADS-B
Mon 09:30:45 AM 52.3507 -0.7099 334° Northwest 392 451 20,800  Climbing FlightAware ADS-B
Mon 09:31:02 AM 52.3793 -0.7329 334° Northwest 426 490 19,800 1,636 Descending FlightAware UK
Mon 09:31:18 AM 52.4046 -0.7534 334° Northwest 394 453 21,700 3,375 Climbing FlightAware ADS-B
Mon 09:31:50 AM 52.4582 -0.7959 334° Northwest 407 468 22,500 1,588 Climbing FlightAware ADS-B
Mon 09:32:26 AM 52.5195 -0.8443 334° Northwest 412 474 23,500 -111 Climbing FlightAware ADS-B
Mon 09:32:44 AM 52.5519 -0.8698 334° Northwest 448 516 22,400 1,317 Descending FlightAware UK
Mon 09:33:07 AM 52.5840 -0.8950 335° Northwest 418 481 24,400 1,500 Climbing FlightAware ADS-B
Mon 09:33:08 AM 52.5938 -0.9026 335° Northwest 452 520 23,000 2,182 Descending FlightAware UK
Mon 09:33:18 AM 52.6101 -0.9156 334° Northwest 418 481 24,800 3,545 Climbing FlightAware ADS-B
Mon 09:33:52 AM 52.6670 -0.9610 334° Northwest 424 488 25,600 1,333 Climbing FlightAware ADS-B
Mon 09:34:12 AM 52.7060 -0.9920 334° Northwest 423 487 26,000 -1,050 Climbing FlightAware ADS-B
Mon 09:34:32 AM 52.7421 -1.0209 334° Northwest 464 534 24,900 1,355 Descending FlightAware UK
Mon 09:34:43 AM 52.7610 -1.0355 334° Northwest 428 493 26,700 1,400 Climbing FlightAware ADS-B
Mon 09:35:02 AM 52.7962 -1.0635 334° Northwest 468 539 25,600 1,200 Descending FlightAware UK
Mon 09:35:18 AM 52.8236 -1.0861 334° Northwest 434 499 27,400 4,500 Climbing FlightAware ADS-B
Mon 09:35:30 AM 52.8444 -1.1085 327° Northwest 429 494 27,700 -955 Climbing FlightAware ADS-B
Mon 09:36:02 AM 52.8957 -1.1714 327° Northwest 474 545 26,700 -840 Descending FlightAware UK
Mon 09:36:20 AM 52.9245 -1.2070 323° Northwest 476 548 27,000 3,150 Climbing FlightAware UK
Mon 09:36:42 AM 52.9560 -1.2450 323° Northwest 438 504 28,800 3,706 Climbing FlightAware ADS-B
Mon 09:36:54 AM 52.9801 -1.2737 324° Northwest 435 501 29,100 -1,688 Climbing FlightAware ADS-B
Mon 09:37:14 AM 53.0130 -1.3136 324° Northwest 482 555 27,900 -1,421 Descending FlightAware UK
Mon 09:37:32 AM 53.0427 -1.3498 324° Northwest 486 559 28,200 833 Climbing FlightAware UK
Mon 09:37:50 AM 53.0723 -1.3861 324° Northwest 488 562 28,400 3,800 Climbing FlightAware UK
Mon 09:38:02 AM 53.0860 -1.4030 324° Northwest 445 512 30,100 1,200 Climbing FlightAware ADS-B
Mon 09:38:20 AM 53.1216 -1.4464 324° Northwest 488 562 29,000 -1,167 Descending FlightAware UK
Mon 09:38:38 AM 53.1514 -1.4828 324° Northwest 486 559 29,400 4,667 Climbing FlightAware UK
Mon 09:38:47 AM 53.1590 -1.4910 324° Northwest 440 506 31,100 1,250 Climbing FlightAware ADS-B
Mon 09:39:26 AM 53.2292 -1.5798 324° Northwest 484 557 30,400 1,200 Descending FlightAware UK
Mon 09:39:27 AM 53.2260 -1.5760 324° Northwest 438 504 31,900 1,000 Climbing FlightAware ADS-B
Mon 09:39:50 AM 53.2677 -1.6288 324° Northwest 480 552 30,800 933 Descending FlightAware UK
Mon 09:40:12 AM 53.3010 -1.6700 324° Northwest 440 506 32,600 3,333 Climbing FlightAware ADS-B
Mon 09:40:26 AM 53.3256 -1.7009 323° Northwest 442 509 32,800 682 Climbing FlightAware ADS-B
Mon 09:40:56 AM 53.3754 -1.7630 323° Northwest 442 509 33,100 -900 Climbing FlightAware ADS-B
Mon 09:41:26 AM 53.4241 -1.8246 323° Northwest 486 559 31,900 732 Descending FlightAware UK
Mon 09:41:37 AM 53.4350 -1.8400 323° Northwest 443 510 33,600 4,750 Climbing FlightAware ADS-B
Mon 09:41:50 AM 53.4627 -1.8768 322° Northwest 443 510 33,800 -2,129 Climbing FlightAware ADS-B
Mon 09:42:08 AM 53.4906 -1.9150 322° Northwest 488 562 32,500 387 Descending FlightAware UK
Mon 09:42:21 AM 53.5119 -1.9441 322° Northwest 441 507 34,000 2,813 Climbing FlightAware ADS-B
Mon 09:42:40 AM 53.5416 -1.9844 321° Northwest 441 507 34,000 -2,195 Level FlightAware ADS-B
Mon 09:43:02 AM 53.5800 -2.0209 321° Northwest 484 557 32,500 -1,957 Descending FlightAware UK
Mon 09:43:26 AM 53.6259 -2.0545 337° Northwest 486 559 32,500 2,250 Level FlightAware UK
Mon 09:43:42 AM 53.6480 -2.0690 337° Northwest 454 522 34,000 1,607 Climbing FlightAware ADS-B
Mon 09:44:22 AM 53.7300 -2.1220 339° North 453 521 34,000 -1,714 Level FlightAware ADS-B
Mon 09:44:38 AM 53.7667 -2.1456 339° North 490 564 32,400 -2,400 Descending FlightAware UK
Mon 09:45:02 AM 53.8123 -2.1799 336° Northwest 488 562 32,400 3,310 Level FlightAware UK
Mon 09:45:07 AM 53.8140 -2.1810 336° Northwest 450 518 34,000 2,400 Climbing FlightAware ADS-B
Mon 09:45:42 AM 53.8830 -2.2350 335° Northwest 450 518 34,000 -1,500 Level FlightAware ADS-B
Mon 09:46:07 AM 53.9361 -2.2782 335° Northwest 486 559 32,500 -2,093 Descending FlightAware UK
Mon 09:46:25 AM 53.9698 -2.3047 335° Northwest 486 559 32,500 4,500 Level FlightAware UK
Mon 09:46:27 AM 53.9660 -2.3010 335° Northwest 453 521 34,000  Climbing FlightAware ADS-B
Mon 09:46:43 AM 54.0040 -2.3315 335° Northwest 490 564 32,500  Descending FlightAware UK
Mon 09:47:12 AM 54.0540 -2.3710 335° Northwest 453 521 34,000  Climbing FlightAware ADS-B
Mon 09:47:37 AM 54.1064 -2.4136 335° Northwest 486 559 32,500  Descending FlightAware UK
Mon 09:47:57 AM 54.1360 -2.4380 335° Northwest 452 520 34,000  Climbing FlightAware ADS-B
Mon 09:48:25 AM 54.1967 -2.4881 335° Northwest 488 562 32,500  Descending FlightAware UK
Mon 09:48:37 AM 54.2110 -2.5000 335° Northwest 457 526 34,000 1,731 Climbing FlightAware ADS-B
Mon 09:49:17 AM 54.2860 -2.5620 334° Northwest 458 527 34,000 -1,500 Level FlightAware ADS-B
Mon 09:49:37 AM 54.3338 -2.6005 334° Northwest 490 564 32,500  Descending FlightAware UK
Mon 09:49:57 AM 54.3640 -2.6260 334° Northwest 459 528 34,000 1,385 Climbing FlightAware ADS-B
Mon 09:50:42 AM 54.4520 -2.6990 334° Northwest 457 526 34,000 -1,500 Level FlightAware ADS-B
Mon 09:51:01 AM 54.4942 -2.7331 334° Northwest 492 566 32,400 -2,432 Descending FlightAware UK
Mon 09:51:19 AM 54.5284 -2.7615 334° Northwest 490 564 32,500 4,571 Climbing FlightAware UK
Mon 09:51:22 AM 54.5210 -2.7560 334° Northwest 457 526 34,000  Climbing FlightAware ADS-B
Mon 09:51:37 AM 54.5626 -2.7899 334° Northwest 492 566 32,500 -2,727 Descending FlightAware UK
Mon 09:51:55 AM 54.5967 -2.8188 334° Northwest 492 566 32,500 3,000 Level FlightAware UK
Mon 09:52:07 AM 54.6150 -2.8350 334° Northwest 458 527 34,000  Climbing FlightAware ADS-B
Mon 09:52:43 AM 54.6875 -2.8952 334° Northwest 496 571 32,500  Descending FlightAware UK
Mon 09:52:47 AM 54.6880 -2.8960 334° Northwest 458 527 34,000  Climbing FlightAware ADS-B
Mon 09:53:25 AM 54.7672 -2.9623 334° Northwest 486 559 32,500  Descending FlightAware UK
Mon 09:53:27 AM 54.7640 -2.9600 334° Northwest 457 526 34,000  Climbing FlightAware ADS-B
Mon 09:53:43 AM 54.8013 -2.9911 334° Northwest 490 564 32,500 -2,250 Descending FlightAware UK
Mon 09:54:07 AM 54.8471 -3.0299 334° Northwest 494 568 32,500 3,103 Level FlightAware UK
Mon 09:54:12 AM 54.8520 -3.0340 334° Northwest 463 533 34,000  Climbing FlightAware ADS-B
Mon 09:54:37 AM 54.9048 -3.0794 334° Northwest 492 566 32,500  Descending FlightAware UK
Mon 09:54:52 AM 54.9280 -3.0990 334° Northwest 464 534 34,000  Climbing FlightAware ADS-B
Mon 09:55:25 AM 54.9972 -3.1581 334° Northwest 498 573 32,500  Descending FlightAware UK
Mon 09:55:37 AM 55.0170 -3.1750 334° Northwest 465 535 34,000 1,731 Climbing FlightAware ADS-B
Mon 09:56:17 AM 55.0940 -3.2410 334° Northwest 466 536 34,000 -1,364 Level FlightAware ADS-B
Mon 09:56:43 AM 55.1472 -3.2869 334° Northwest 496 571 32,500  Descending FlightAware UK
Mon 09:56:57 AM 55.1710 -3.3080 334° Northwest 466 536 34,000  Climbing FlightAware ADS-B
Mon 09:57:13 AM 55.2051 -3.3370 334° Northwest 498 573 32,500  Descending FlightAware UK
Mon 09:57:42 AM 55.2550 -3.3800 334° Northwest 463 533 34,000  Climbing FlightAware ADS-B
Mon 09:58:01 AM 55.2971 -3.4172 334° Northwest 502 578 32,500  Descending FlightAware UK
Mon 09:58:22 AM 55.3320 -3.4470 334° Northwest 459 528 34,000 -143 Climbing FlightAware ADS-B
Mon 09:58:43 AM 55.3768 -3.4870 334° Northwest 496 571 32,400 -2,308 Descending FlightAware UK
Mon 09:59:01 AM 55.4107 -3.5167 334° Northwest 498 573 32,500 4,000 Climbing FlightAware UK
Mon 09:59:07 AM 55.4180 -3.5230 334° Northwest 457 526 34,000 1,957 Climbing FlightAware ADS-B
Mon 09:59:47 AM 55.4940 -3.5900 333° Northwest 458 527 34,000 -1,600 Level FlightAware ADS-B
Mon 10:00:07 AM 55.5353 -3.6266 333° Northwest 496 571 32,400  Descending FlightAware UK
Mon 10:00:27 AM 55.5690 -3.6560 333° Northwest 457 526 34,000 143 Climbing FlightAware ADS-B
Mon 10:00:49 AM 55.6146 -3.6963 333° Northwest 496 571 32,500  Descending FlightAware UK
Mon 10:01:12 AM 55.6550 -3.7320 333° Northwest 456 525 34,000 -143 Climbing FlightAware ADS-B
Mon 10:01:31 AM 55.6937 -3.7665 333° Northwest 486 559 32,400 -2,432 Descending FlightAware UK
Mon 10:01:49 AM 55.7277 -3.7969 333° Northwest 494 568 32,500 4,571 Climbing FlightAware UK
Mon 10:01:52 AM 55.7280 -3.7970 333° Northwest 460 529 34,000  Climbing FlightAware ADS-B
Mon 10:02:07 AM 55.7618 -3.8275 333° Northwest 500 575 32,500 -2,909 Descending FlightAware UK
Mon 10:02:25 AM 55.7961 -3.8584 333° Northwest 498 573 32,400 3,000 Descending FlightAware UK
Mon 10:02:37 AM 55.8130 -3.8740 333° Northwest 461 531 34,000 1,846 Climbing FlightAware ADS-B
Mon 10:03:17 AM 55.8860 -3.9390 333° Northwest 458 527 34,000 -1,250 Level FlightAware ADS-B
Mon 10:03:49 AM 55.9550 -4.0012 333° Northwest 494 568 32,500  Descending FlightAware UK
Mon 10:03:52 AM 55.9510 -3.9980 333° Northwest 455 524 34,000 -333 Climbing FlightAware ADS-B
Mon 10:04:07 AM 55.9888 -4.0317 333° Northwest 494 568 32,400 -2,727 Descending FlightAware UK
Mon 10:04:25 AM 56.0223 -4.0620 333° Northwest 500 575 32,500 2,743 Climbing FlightAware UK
Mon 10:04:42 AM 56.0480 -4.0850 333° Northwest 452 520 34,000 -167 Climbing FlightAware ADS-B
Mon 10:05:01 AM 56.0890 -4.1227 333° Northwest 494 568 32,400  Descending FlightAware UK
Mon 10:05:22 AM 56.1220 -4.1530 333° Northwest 452 520 34,000 146 Climbing FlightAware ADS-B
Mon 10:05:42 AM 56.1665 -4.1936 333° Northwest 498 573 32,500 -2,368 Descending FlightAware UK
Mon 10:06:00 AM 56.1999 -4.2243 333° Northwest 498 573 32,500 3,600 Level FlightAware UK
Mon 10:06:07 AM 56.2060 -4.2300 333° Northwest 451 519 34,000  Climbing FlightAware ADS-B
Mon 10:06:24 AM 56.2444 -4.2651 333° Northwest 496 571 32,500 -2,743 Descending FlightAware UK
Mon 10:06:42 AM 56.2776 -4.2955 333° Northwest 492 566 32,400 3,913 Descending FlightAware UK
Mon 10:06:47 AM 56.2780 -4.2960 333° Northwest 448 516 34,000 250 Climbing FlightAware ADS-B
Mon 10:07:06 AM 56.3217 -4.3360 333° Northwest 494 568 32,500 -2,595 Descending FlightAware UK
Mon 10:07:24 AM 56.3549 -4.3669 333° Northwest 494 568 32,400 4,286 Descending FlightAware UK
Mon 10:07:27 AM 56.3520 -4.3640 333° Northwest 448 516 34,000  Climbing FlightAware ADS-B
Mon 10:07:42 AM 56.3881 -4.3976 333° Northwest 484 557 32,400 -2,909 Descending FlightAware UK
Mon 10:08:00 AM 56.4210 -4.4283 333° Northwest 486 559 32,400 3,200 Level FlightAware UK
Mon 10:08:12 AM 56.4350 -4.4420 333° Northwest 449 517 34,000 200 Climbing FlightAware ADS-B
Mon 10:08:30 AM 56.4762 -4.4799 333° Northwest 492 566 32,500 -2,500 Descending FlightAware UK
Mon 10:08:48 AM 56.5099 -4.5113 333° Northwest 494 568 32,500 4,091 Level FlightAware UK
Mon 10:08:52 AM 56.5110 -4.5130 333° Northwest 455 524 34,000  Climbing FlightAware ADS-B
Mon 10:09:12 AM 56.5547 -4.5532 333° Northwest 492 566 32,500  Descending FlightAware UK
Mon 10:09:37 AM 56.5940 -4.5900 333° Northwest 456 525 34,000  Climbing FlightAware ADS-B
Mon 10:09:54 AM 56.6331 -4.6267 333° Northwest 498 573 32,500 -2,743 Descending FlightAware UK
Mon 10:10:12 AM 56.6671 -4.6585 333° Northwest 506 582 32,400 3,913 Descending FlightAware UK
Mon 10:10:17 AM 56.6690 -4.6600 333° Northwest 453 521 34,000  Climbing FlightAware ADS-B
Mon 10:10:42 AM 56.7235 -4.7120 333° Northwest 488 562 32,400  Descending FlightAware UK
Mon 10:10:57 AM 56.7440 -4.7320 333° Northwest 457 526 34,000 200 Climbing FlightAware ADS-B
Mon 10:11:12 AM 56.7796 -4.7653 333° Northwest 498 573 32,500 -2,909 Descending FlightAware UK
Mon 10:11:30 AM 56.8133 -4.7975 332° Northwest 494 568 32,400 3,000 Descending FlightAware UK
Mon 10:11:42 AM 56.8280 -4.8110 332° Northwest 452 520 34,000 167 Climbing FlightAware ADS-B
Mon 10:12:06 AM 56.8809 -4.8620 332° Northwest 494 568 32,500  Descending FlightAware UK
Mon 10:12:22 AM 56.9030 -4.8830 332° Northwest 456 525 34,000 -167 Climbing FlightAware ADS-B
Mon 10:12:42 AM 56.9494 -4.9274 332° Northwest 504 580 32,400 -2,526 Descending FlightAware UK
Mon 10:13:00 AM 56.9835 -4.9601 332° Northwest 502 578 32,400 3,840 Level FlightAware UK
Mon 10:13:07 AM 56.9880 -4.9650 332° Northwest 453 521 34,000  Climbing FlightAware ADS-B
Mon 10:13:24 AM 57.0282 -5.0031 332° Northwest 498 573 32,400 -2,571 Descending FlightAware UK
Mon 10:13:42 AM 57.0619 -5.0357 332° Northwest 498 573 32,500 5,333 Climbing FlightAware UK
Mon 10:13:42 AM 57.0550 -5.0290 332° Northwest 458 527 34,000  Climbing FlightAware ADS-B
Mon 10:14:00 AM 57.0955 -5.0683 332° Northwest 502 578 32,500 -2,667 Descending FlightAware UK
Mon 10:14:18 AM 57.1277 -5.1047 328° Northwest 494 568 32,400 3,333 Descending FlightAware UK
Mon 10:14:27 AM 57.1390 -5.1200 328° Northwest 454 522 34,000  Climbing FlightAware ADS-B
Mon 10:14:42 AM 57.1687 -5.1581 328° Northwest 496 571 32,400 -2,909 Descending FlightAware UK
Mon 10:15:00 AM 57.1978 -5.2019 321° Northwest 488 562 32,400 3,200 Level FlightAware UK
Mon 10:15:12 AM 57.2110 -5.2220 321° Northwest 452 520 34,000 200 Climbing FlightAware ADS-B
Mon 10:15:30 AM 57.2460 -5.2758 321° Northwest 484 557 32,500 -2,500 Descending FlightAware UK
Mon 10:15:48 AM 57.2754 -5.3205 321° Northwest 490 564 32,500  Level FlightAware UK
Mon 10:16:06 AM 57.3051 -5.3661 320° Northwest 500 575 32,500  Level FlightAware UK
Mon 10:16:24 AM 57.3347 -5.4120 320° Northwest 502 578 32,500 2,903 Level FlightAware UK
Mon 10:16:37 AM 57.3470 -5.4320 320° Northwest 462 532 34,000  Climbing FlightAware ADS-B
Mon 10:16:54 AM 57.3834 -5.4885 320° Northwest 492 566 32,500  Descending FlightAware UK
Mon 10:17:17 AM 57.4080 -5.5270 320° Northwest 461 531 34,000 1,429 Climbing FlightAware ADS-B
Mon 10:17:57 AM 57.4720 -5.6290 319° Northwest 460 529 34,000  Level FlightAware ADS-B
Mon 10:18:42 AM 57.5470 -5.7460 320° Northwest 460 529 34,000  Level FlightAware ADS-B
Mon 10:19:22 AM 57.6150 -5.8550 319° Northwest 459 528 34,000  Level FlightAware ADS-B
Mon 10:20:07 AM 57.6820 -5.9610 320° Northwest 458 527 34,000  Level FlightAware ADS-B
Mon 10:20:47 AM 57.7480 -6.0660 320° Northwest 457 526 34,000 -1,627 Level FlightAware ADS-B
Mon 10:21:06 AM 57.7899 -6.1343 320° Northwest 496 571 32,400  Descending FlightAware UK
Mon 10:21:27 AM 57.8160 -6.1770 320° Northwest 456 525 34,000 167 Climbing FlightAware ADS-B
Mon 10:21:42 AM 57.8473 -6.2269 320° Northwest 498 573 32,500 -2,727 Descending FlightAware UK
Mon 10:22:00 AM 57.8760 -6.2734 319° Northwest 496 571 32,500 3,000 Level FlightAware UK
Mon 10:22:12 AM 57.8900 -6.2960 319° Northwest 455 524 34,000  Climbing FlightAware ADS-B
Mon 10:22:30 AM 57.9234 -6.3503 319° Northwest 502 578 32,500 -2,500 Descending FlightAware UK
Mon 10:22:48 AM 57.9522 -6.3967 319° Northwest 502 578 32,500 -167 Level FlightAware UK
Mon 10:23:06 AM 57.9808 -6.4432 319° Northwest 496 571 32,400 4,737 Descending FlightAware UK
Mon 10:23:07 AM 57.9730 -6.4320 319° Northwest 449 517 34,000  Climbing FlightAware ADS-B
Mon 10:23:24 AM 58.0093 -6.4898 319° Northwest 498 573 32,400 -2,571 Descending FlightAware UK
Mon 10:23:42 AM 58.0376 -6.5365 319° Northwest 500 575 32,500 3,429 Climbing FlightAware UK
Mon 10:23:52 AM 58.0450 -6.5500 319° Northwest 447 514 34,000 -200 Climbing FlightAware ADS-B
Mon 10:24:12 AM 58.0848 -6.6138 319° Northwest 494 568 32,400 -2,526 Descending FlightAware UK
Mon 10:24:30 AM 58.1130 -6.6602 319° Northwest 492 566 32,400 4,800 Level FlightAware UK
Mon 10:24:32 AM 58.1090 -6.6540 319° Northwest 450 518 34,000 333 Climbing FlightAware ADS-B
Mon 10:24:48 AM 58.1413 -6.7064 319° Northwest 492 566 32,500 -2,647 Descending FlightAware UK
Mon 10:25:06 AM 58.1694 -6.7527 319° Northwest 494 568 32,500 3,750 Level FlightAware UK
Mon 10:25:12 AM 58.1710 -6.7560 319° Northwest 452 520 34,000 -250 Climbing FlightAware ADS-B
Mon 10:25:30 AM 58.2071 -6.8148 319° Northwest 492 566 32,400 -2,500 Descending FlightAware UK
Mon 10:25:48 AM 58.2354 -6.8613 319° Northwest 494 568 32,500 3,556 Climbing FlightAware UK
Mon 10:25:57 AM 58.2430 -6.8740 319° Northwest 452 520 34,000  Climbing FlightAware ADS-B
Mon 10:26:12 AM 58.2731 -6.9238 319° Northwest 494 568 32,500 -2,727 Descending FlightAware UK
Mon 10:26:30 AM 58.3013 -6.9710 319° Northwest 494 568 32,500 3,600 Level FlightAware UK
Mon 10:26:37 AM 58.3040 -6.9750 319° Northwest 453 521 34,000  Climbing FlightAware ADS-B
Mon 10:26:54 AM 58.3390 -7.0340 319° Northwest 496 571 32,500 -2,571 Descending FlightAware UK
Mon 10:27:12 AM 58.3673 -7.0813 319° Northwest 496 571 32,500 3,214 Level FlightAware UK
Mon 10:27:22 AM 58.3750 -7.0940 319° Northwest 452 520 34,000  Climbing FlightAware ADS-B
Mon 10:27:42 AM 58.4145 -7.1602 319° Northwest 498 573 32,500 -2,368 Descending FlightAware UK
Mon 10:28:00 AM 58.4427 -7.2075 319° Northwest 498 573 32,500 4,500 Level FlightAware UK
Mon 10:28:02 AM 58.4390 -7.2020 319° Northwest 452 520 34,000 -333 Climbing FlightAware ADS-B
Mon 10:28:18 AM 58.4710 -7.2548 319° Northwest 496 571 32,400 -2,824 Descending FlightAware UK
Mon 10:28:36 AM 58.4992 -7.3021 319° Northwest 496 571 32,400 4,000 Level FlightAware UK
Mon 10:28:42 AM 58.5020 -7.3080 319° Northwest 451 519 34,000  Climbing FlightAware ADS-B
Mon 10:29:00 AM 58.5365 -7.3656 319° Northwest 498 573 32,400 -2,500 Descending FlightAware UK
Mon 10:29:18 AM 58.5645 -7.4132 319° Northwest 496 571 32,500 3,556 Climbing FlightAware UK
Mon 10:29:27 AM 58.5730 -7.4280 319° Northwest 450 518 34,000 -250 Climbing FlightAware ADS-B
Mon 10:29:42 AM 58.6019 -7.4766 319° Northwest 496 571 32,400 -2,909 Descending FlightAware UK
Mon 10:30:00 AM 58.6297 -7.5243 318° Northwest 494 568 32,400 3,840 Level FlightAware UK
Mon 10:30:07 AM 58.6350 -7.5330 318° Northwest 450 518 34,000 250 Climbing FlightAware ADS-B
Mon 10:30:24 AM 58.6669 -7.5878 318° Northwest 496 571 32,500 -2,571 Descending FlightAware UK
Mon 10:30:42 AM 58.6948 -7.6356 318° Northwest 496 571 32,500 3,214 Level FlightAware UK
Mon 10:30:52 AM 58.7060 -7.6550 318° Northwest 450 518 34,000 -200 Climbing FlightAware ADS-B
Mon 10:31:12 AM 58.7413 -7.7152 318° Northwest 494 568 32,400 -2,368 Descending FlightAware UK
Mon 10:31:30 AM 58.7691 -7.7632 318° Northwest 494 568 32,500 4,800 Climbing FlightAware UK
Mon 10:31:32 AM 58.7680 -7.7620 318° Northwest 450 518 34,000  Climbing FlightAware ADS-B
Mon 10:31:48 AM 58.7966 -7.8108 318° Northwest 494 568 32,500 -2,824 Descending FlightAware UK
Mon 10:32:06 AM 58.8244 -7.8590 318° Northwest 492 566 32,400 3,750 Descending FlightAware UK
Mon 10:32:12 AM 58.8290 -7.8680 318° Northwest 451 519 34,000  Climbing FlightAware ADS-B
Mon 10:32:30 AM 58.8615 -7.9233 318° Northwest 492 566 32,400 -2,500 Descending FlightAware UK
Mon 10:32:48 AM 58.8893 -7.9716 318° Northwest 492 566 32,500 3,556 Climbing FlightAware UK
Mon 10:32:57 AM 58.9000 -7.9900 318° Northwest 452 520 34,000  Climbing FlightAware ADS-B
Mon 10:33:12 AM 58.9264 -8.0364 318° Northwest 494 568 32,500 -2,727 Descending FlightAware UK
Mon 10:33:30 AM 58.9543 -8.0851 318° Northwest 494 568 32,500 3,600 Level FlightAware UK
Mon 10:33:37 AM 58.9600 -8.0960 318° Northwest 453 521 34,000 -250 Climbing FlightAware ADS-B
Mon 10:33:54 AM 58.9915 -8.1502 318° Northwest 494 568 32,400 -2,571 Descending FlightAware UK
Mon 10:34:12 AM 59.0194 -8.1992 318° Northwest 496 571 32,500 4,174 Climbing FlightAware UK
Mon 10:34:17 AM 59.0240 -8.2080 318° Northwest 453 521 34,000  Climbing FlightAware ADS-B
Mon 10:34:36 AM 59.0565 -8.2648 318° Northwest 496 571 32,500 -2,432 Descending FlightAware UK
Mon 10:34:54 AM 59.0843 -8.3141 318° Northwest 496 571 32,500 3,462 Level FlightAware UK
Mon 10:35:02 AM 59.0930 -8.3290 318° Northwest 453 521 34,000  Climbing FlightAware ADS-B
Mon 10:35:18 AM 59.1213 -8.3800 318° Northwest 496 571 32,500 -2,647 Descending FlightAware UK
Mon 10:35:36 AM 59.1491 -8.4293 318° Northwest 496 571 32,500 3,750 Level FlightAware UK
Mon 10:35:42 AM 59.1500 -8.4310 318° Northwest 453 521 34,000 500 Climbing FlightAware ADS-B
Mon 10:36:00 AM 59.1861 -8.4954 318° Northwest 498 573 32,700 -1,667 Descending FlightAware UK
Mon 10:36:18 AM 59.2138 -8.5450 318° Northwest 496 571 33,000 5,182 Climbing FlightAware UK
Mon 10:36:22 AM 59.2130 -8.5440 318° Northwest 443 510 34,600 1,500 Climbing FlightAware ADS-B
Mon 10:36:42 AM 59.2502 -8.6105 318° Northwest 490 564 33,600 -1,421 Descending FlightAware UK
Mon 10:37:00 AM 59.2768 -8.6594 317° Northwest 488 562 33,700 3,840 Climbing FlightAware UK
Mon 10:37:07 AM 59.2830 -8.6680 317° Northwest 440 506 35,200 500 Climbing FlightAware ADS-B
Mon 10:37:24 AM 59.3133 -8.7244 317° Northwest 492 566 33,900 -2,057 Descending FlightAware UK
Mon 10:37:42 AM 59.3408 -8.7733 318° Northwest 490 564 34,000 5,333 Climbing FlightAware UK
Mon 10:37:42 AM 59.3320 -8.7580 318° Northwest 441 507 35,500 667 Climbing FlightAware ADS-B
Mon 10:38:00 AM 59.3682 -8.8225 318° Northwest 490 564 34,200 -2,000 Descending FlightAware UK
Mon 10:38:18 AM 59.3954 -8.8724 317° Northwest 492 566 34,300 3,375 Climbing FlightAware UK
Mon 10:38:32 AM 59.4130 -8.9050 317° Northwest 444 511 36,000 400 Climbing FlightAware ADS-B
Mon 10:38:48 AM 59.4410 -8.9555 317° Northwest 492 566 34,500 -2,647 Descending FlightAware UK
Mon 10:39:06 AM 59.4684 -9.0054 317° Northwest 492 566 34,500 3,750 Level FlightAware UK
Mon 10:39:12 AM 59.4670 -9.0040 317° Northwest 444 511 36,000 1,765 Climbing FlightAware ADS-B
Mon 10:39:57 AM 59.5440 -9.1440 317° Northwest 443 510 36,000  Level FlightAware ADS-B
Mon 10:40:47 AM 59.6190 -9.2830 317° Northwest 442 509 36,000  Level FlightAware ADS-B
Mon 10:41:47 AM 59.6990 -9.4330 317° Northwest 447 514 36,000  Level FlightAware ADS-B
Mon 10:42:32 AM 59.7710 -9.5660 317° Northwest 448 516 36,000  Level FlightAware ADS-B
Mon 10:43:27 AM 59.8540 -9.7220 317° Northwest 447 514 36,000  Level FlightAware ADS-B
Mon 10:44:02 AM 59.9020 -9.8140 316° Northwest 447 514 36,000  Level FlightAware ADS-B
Mon 10:44:57 AM 59.9890 -9.9780 317° Northwest 448 516 36,000  Level FlightAware ADS-B
Mon 10:46:27 AM 60.1180 -10.2430 314° West 442 509 36,000  Level FlightAware ADS-B
Mon 10:47:07 AM 60.1650 -10.3450 313° West 442 509 36,000  Level FlightAware ADS-B
Mon 10:47:47 AM 60.2130 -10.4470 313° West 442 509 36,000  Level FlightAware ADS-B
Mon 10:48:27 AM 60.2600 -10.5490 313° West 442 509 36,000  Level FlightAware ADS-B
Mon 10:49:17 AM 60.3190 -10.6780 313° West 442 509 36,000  Level FlightAware ADS-B
Mon 10:49:57 AM 60.3670 -10.7800 314° West 442 509 36,000  Level FlightAware ADS-B
Mon 10:50:37 AM 60.4140 -10.8830 313° West 442 509 36,000  Level FlightAware ADS-B
Mon 10:51:17 AM 60.4620 -10.9870 313° West 442 509 36,000  Level FlightAware ADS-B
Mon 10:51:57 AM 60.5090 -11.0900 313° West 442 509 36,000  Level FlightAware ADS-B
Mon 10:52:47 AM 60.5680 -11.2190 313° West 442 509 36,000  Level FlightAware ADS-B
Mon 10:53:27 AM 60.6160 -11.3230 313° West 442 509 36,000  Level FlightAware ADS-B
Mon 10:54:07 AM 60.6630 -11.4260 313° West 442 509 36,000  Level FlightAware ADS-B
Mon 10:54:47 AM 60.7110 -11.5300 313° West 442 509 36,000  Level FlightAware ADS-B
Mon 10:55:27 AM 60.7580 -11.6340 313° West 442 509 36,000  Level FlightAware ADS-B
Mon 10:58:00 AM 60.9174 -12.1787 301° West  Level Estimated
Mon 10:59:00 AM 60.9794 -12.3938 301° West  Level Estimated
Mon 10:59:32 AM 61.2410 -12.6040 301° West 443 510 36,000  Level FlightAware ADS-B
Mon 11:00:12 AM 61.2970 -12.7300 313° West 443 510 36,000  Level FlightAware ADS-B
Mon 11:00:57 AM 61.3610 -12.8760 312° West 443 510 36,000  Level FlightAware ADS-B
Mon 11:01:37 AM 61.4140 -12.9970 313° West 444 511 36,000  Level FlightAware ADS-B
Mon 11:02:17 AM 61.4700 -13.1290 312° West 445 512 36,000  Level FlightAware ADS-B
Mon 11:03:02 AM 61.5310 -13.2700 312° West 445 512 36,000  Level FlightAware ADS-B
Mon 11:03:42 AM 61.5850 -13.3980 312° West 446 513 36,000  Level FlightAware ADS-B
Mon 11:04:22 AM 61.6410 -13.5280 312° West 447 514 36,000  Level FlightAware ADS-B
Mon 11:05:12 AM 61.7090 -13.6900 312° West 448 516 36,000  Level FlightAware ADS-B
Mon 11:05:52 AM 61.7640 -13.8220 311° West 449 517 36,000  Level FlightAware ADS-B
Mon 11:06:32 AM 61.8190 -13.9540 311° West 447 514 36,000  Level FlightAware ADS-B
Mon 11:07:17 AM 61.8810 -14.1020 312° West 445 512 36,000  Level FlightAware ADS-B
Mon 11:07:52 AM 61.9260 -14.2120 311° West 442 509 36,000  Level FlightAware ADS-B
Mon 11:08:37 AM 61.9860 -14.3590 311° West 442 509 36,000  Level FlightAware ADS-B
Mon 11:09:17 AM 62.0400 -14.4910 311° West 441 507 36,000  Level FlightAware ADS-B
Mon 11:09:57 AM 62.0940 -14.6270 310° West 441 507 36,000  Level FlightAware ADS-B
Mon 11:10:47 AM 62.1610 -14.7930 311° West 442 509 36,000  Level FlightAware ADS-B
Mon 11:11:27 AM 62.2110 -14.9190 310° West 442 509 36,000  Level FlightAware ADS-B
Mon 11:12:12 AM 62.2720 -15.0730 310° West 442 509 36,000  Level FlightAware ADS-B
Mon 11:12:52 AM 62.3250 -15.2050 311° West 442 509 36,000  Level FlightAware ADS-B
Mon 11:13:32 AM 62.3770 -15.3400 310° West 441 507 36,000  Level FlightAware ADS-B
Mon 11:14:17 AM 62.4350 -15.4870 310° West 440 506 36,000  Level FlightAware ADS-B
Mon 11:14:57 AM 62.4870 -15.6230 310° West 441 507 36,000  Level FlightAware ADS-B
Mon 11:15:37 AM 62.5410 -15.7640 310° West 443 510 36,000  Level FlightAware ADS-B
Mon 11:16:22 AM 62.5990 -15.9140 310° West 443 510 36,000  Level FlightAware ADS-B
Mon 11:17:02 AM 62.6510 -16.0530 309° West 444 511 36,000  Level FlightAware ADS-B
Mon 11:17:42 AM 62.7030 -16.1890 310° West 444 511 36,000  Level FlightAware ADS-B
Mon 11:18:27 AM 62.7620 -16.3480 309° West 444 511 36,000  Level FlightAware ADS-B
Mon 11:19:07 AM 62.8140 -16.4870 309° West 443 510 36,000  Level FlightAware ADS-B
Mon 11:19:52 AM 62.8710 -16.6430 309° West 443 510 36,000  Level FlightAware ADS-B
Mon 11:20:32 AM 62.9210 -16.7790 309° West 443 510 36,000  Level FlightAware ADS-B
Mon 11:21:12 AM 62.9730 -16.9210 309° West 443 510 36,000  Level FlightAware ADS-B
Mon 11:21:57 AM 63.0300 -17.0770 309° West 443 510 36,000  Level FlightAware ADS-B
Mon 11:22:37 AM 63.0810 -17.2180 309° West 443 510 36,000  Level FlightAware ADS-B
Mon 11:23:17 AM 63.1330 -17.3640 308° West 445 512 36,000  Level FlightAware ADS-B
Mon 11:23:47 AM 63.1710 -17.4700 308° West 446 513 36,000  Level FlightAware ADS-B
Mon 11:24:27 AM 63.2220 -17.6140 308° West 447 514 36,000  Level FlightAware ADS-B
Mon 11:25:12 AM 63.2790 -17.7760 308° West 446 513 36,000  Level FlightAware ADS-B
Mon 11:25:52 AM 63.3270 -17.9140 308° West 447 514 36,000  Level FlightAware ADS-B
Mon 11:26:37 AM 63.3850 -18.0820 308° West 447 514 36,000  Level FlightAware ADS-B
Mon 11:27:17 AM 63.4360 -18.2290 308° West 447 514 36,000  Level FlightAware ADS-B
Mon 11:28:02 AM 63.4910 -18.3900 307° West 445 512 36,000  Level FlightAware ADS-B
Mon 11:28:42 AM 63.5420 -18.5410 307° West 444 511 36,000  Level FlightAware ADS-B
Mon 11:29:22 AM 63.5920 -18.6890 307° West 444 511 36,000  Level FlightAware ADS-B
Mon 11:30:07 AM 63.6460 -18.8490 307° West 445 512 36,000  Level FlightAware ADS-B
Mon 11:30:47 AM 63.6950 -18.9980 307° West 447 514 36,000  Level FlightAware ADS-B
Mon 11:31:32 AM 63.7520 -19.1680 307° West 446 513 36,000  Level FlightAware ADS-B
Mon 11:32:12 AM 63.8000 -19.3170 306° West 445 512 36,000  Level FlightAware ADS-B
Mon 11:32:57 AM 63.8540 -19.4820 307° West 447 514 36,000  Level FlightAware ADS-B
Mon 11:33:37 AM 63.9030 -19.6320 307° West 447 514 36,000  Level FlightAware ADS-B
Mon 11:34:17 AM 63.9520 -19.7850 306° West 448 516 36,000  Level FlightAware ADS-B
Mon 11:35:02 AM 64.0060 -19.9580 306° West 448 516 36,000  Level FlightAware ADS-B
Mon 11:35:47 AM 64.0540 -20.1380 301° West 447 514 36,000  Level FlightAware ADS-B
Mon 11:36:27 AM 64.0950 -20.3020 300° West 445 512 36,000  Level FlightAware ADS-B
Mon 11:37:07 AM 64.1350 -20.4660 299° West 445 512 36,000  Level FlightAware ADS-B
Mon 11:37:52 AM 64.1800 -20.6510 299° West 444 511 36,000  Level FlightAware ADS-B
Mon 11:38:32 AM 64.2200 -20.8180 299° West 446 513 36,000  Level FlightAware ADS-B
Mon 11:39:12 AM 64.2600 -20.9830 299° West 448 516 36,000  Level FlightAware ADS-B
Mon 11:39:57 AM 64.3050 -21.1680 299° West 447 514 36,000  Level FlightAware ADS-B
Mon 11:40:37 AM 64.3430 -21.3310 298° West 446 513 36,000  Level FlightAware ADS-B
Mon 11:41:22 AM 64.3880 -21.5230 299° West 446 513 36,000  Level FlightAware ADS-B
Mon 11:42:02 AM 64.4260 -21.6820 299° West 446 513 36,000  Level FlightAware ADS-B
Mon 11:42:47 AM 64.4710 -21.8800 298° West 445 512 36,000  Level FlightAware ADS-B
Mon 11:43:27 AM 64.5100 -22.0480 298° West 446 513 36,000  Level FlightAware ADS-B
Mon 11:44:07 AM 64.5490 -22.2180 298° West 446 513 36,000  Level FlightAware ADS-B
Mon 11:44:47 AM 64.5880 -22.3910 298° West 445 512 36,000  Level FlightAware ADS-B
Mon 11:45:32 AM 64.6290 -22.5770 297° West 446 513 36,000  Level FlightAware ADS-B
Mon 11:46:12 AM 64.6670 -22.7490 297° West 445 512 36,000  Level FlightAware ADS-B
Mon 11:46:57 AM 64.7090 -22.9380 298° West 446 513 36,000  Level FlightAware ADS-B
Mon 11:47:37 AM 64.7460 -23.1060 297° West 445 512 36,000  Level FlightAware ADS-B
Mon 11:48:17 AM 64.7830 -23.2790 297° West 445 512 36,000  Level FlightAware ADS-B
Mon 11:49:02 AM 64.8260 -23.4770 297° West 446 513 36,000  Level FlightAware ADS-B
Mon 11:49:42 AM 64.8620 -23.6490 296° West 448 516 36,000  Level FlightAware ADS-B
Mon 11:50:27 AM 64.9040 -23.8490 296° West 448 516 36,000  Level FlightAware ADS-B
Mon 11:51:07 AM 64.9400 -24.0180 297° West 449 517 36,000  Level FlightAware ADS-B
Mon 11:51:47 AM 64.9770 -24.2000 296° West 450 518 36,000  Level FlightAware ADS-B
Mon 11:52:27 AM 65.0120 -24.3700 296° West 451 519 36,000  Level FlightAware ADS-B
Mon 11:53:12 AM 65.0510 -24.5570 296° West 450 518 36,000  Level FlightAware ADS-B
Mon 11:53:57 AM 65.0920 -24.7610 296° West 449 517 36,000  Level FlightAware ADS-B
Mon 11:54:37 AM 65.1280 -24.9440 295° West 448 516 36,000  Level FlightAware ADS-B
Mon 11:55:17 AM 65.1620 -25.1120 296° West 447 514 36,000  Level FlightAware ADS-B
Mon 11:56:02 AM 65.2030 -25.3230 295° West 447 514 36,000  Level FlightAware ADS-B
Mon 11:56:42 AM 65.2350 -25.4850 295° West 446 513 36,000  Level FlightAware ADS-B
Mon 11:57:22 AM 65.2640 -25.6370 295° West 446 513 36,000  Level FlightAware ADS-B
Mon 11:58:02 AM 65.2940 -25.7890 295° West 446 513 36,000  Level FlightAware ADS-B
Mon 11:58:42 AM 65.3240 -25.9420 295° West 446 513 36,000  Level FlightAware ADS-B
Mon 11:59:32 AM 65.3610 -26.1320 295° West 446 513 36,000  Level FlightAware ADS-B
Mon 12:00:12 PM 65.3900 -26.2850 295° West 446 513 36,000  Level FlightAware ADS-B
Mon 12:00:52 PM 65.4200 -26.4380 295° West 446 513 36,000  Level FlightAware ADS-B
Mon 12:01:32 PM 65.4500 -26.5910 295° West 446 513 36,000  Level FlightAware ADS-B
Mon 12:02:12 PM 65.4790 -26.7440 295° West 446 513 36,000  Level FlightAware ADS-B
Mon 12:03:02 PM 65.5160 -26.9350 295° West 446 513 36,000  Level FlightAware ADS-B
Mon 12:03:42 PM 65.5460 -27.0890 295° West 446 513 36,000  Level FlightAware ADS-B
Mon 12:04:22 PM 65.5760 -27.2430 295° West 446 513 36,000  Level FlightAware ADS-B
Mon 12:05:02 PM 65.6050 -27.3970 295° West 446 513 36,000  Level FlightAware ADS-B
Mon 12:05:42 PM 65.6350 -27.5510 295° West 446 513 36,000  Level FlightAware ADS-B
Mon 12:08:00 PM 65.7117 -28.2029 286° West  Level Estimated
Mon 12:09:00 PM 65.7442 -28.4875 286° West  Level Estimated
Mon 12:10:00 PM 65.7762 -28.7729 285° West  Level Estimated
Mon 12:11:00 PM 65.8076 -29.0589 285° West  Level Estimated
Mon 12:12:00 PM 65.8385 -29.3456 285° West  Level Estimated
Mon 12:13:00 PM 65.8688 -29.6330 285° West  Level Estimated
Mon 12:14:00 PM 65.8986 -29.9207 284° West  Level Estimated
Mon 12:15:00 PM 65.9278 -30.2090 284° West  Level Estimated
Mon 12:16:00 PM 65.9565 -30.4979 284° West  Level Estimated
Mon 12:17:00 PM 65.9847 -30.7876 284° West  Level Estimated
Mon 12:18:00 PM 66.0123 -31.0778 283° West  Level Estimated
Mon 12:19:00 PM 66.0393 -31.3687 283° West  Level Estimated
Mon 12:20:00 PM 66.0658 -31.6601 283° West  Level Estimated
Mon 12:21:00 PM 66.0918 -31.9522 282° West  Level Estimated
Mon 12:22:00 PM 66.1172 -32.2449 282° West  Level Estimated
Mon 12:23:00 PM 66.1420 -32.5381 282° West  Level Estimated
Mon 12:24:00 PM 66.1663 -32.8320 282° West  Level Estimated
Mon 12:25:00 PM 66.1900 -33.1263 281° West  Level Estimated
Mon 12:26:00 PM 66.2132 -33.4213 281° West  Level Estimated
Mon 12:27:00 PM 66.2358 -33.7167 281° West  Level Estimated
Mon 12:28:00 PM 66.2578 -34.0127 281° West  Level Estimated
Mon 12:29:00 PM 66.2793 -34.3092 280° West  Level Estimated
Mon 12:30:00 PM 66.3002 -34.6062 280° West  Level Estimated
Mon 12:31:00 PM 66.3206 -34.9037 280° West  Level Estimated
Mon 12:32:00 PM 66.3404 -35.2016 280° West  Level Estimated
Mon 12:33:00 PM 66.3596 -35.5000 279° West  Level Estimated
Mon 12:34:00 PM 66.3782 -35.7989 279° West  Level Estimated
Mon 12:35:00 PM 66.3963 -36.0982 279° West  Level Estimated
Mon 12:36:00 PM 66.4137 -36.3979 278° West  Level Estimated
Mon 12:37:00 PM 66.4307 -36.6981 278° West  Level Estimated
Mon 12:38:00 PM 66.4470 -36.9986 278° West  Level Estimated
Mon 12:39:00 PM 66.4628 -37.2995 278° West  Level Estimated
Mon 12:40:00 PM 66.4779 -37.6008 277° West  Level Estimated
Mon 12:41:00 PM 66.4925 -37.9025 277° West  Level Estimated
Mon 12:42:00 PM 66.5065 -38.2045 277° West  Level Estimated
Mon 12:43:00 PM 66.5200 -38.5069 276° West  Level Estimated
Mon 12:44:00 PM 66.5328 -38.8095 276° West  Level Estimated
Mon 12:45:00 PM 66.5451 -39.1125 276° West  Level Estimated
Mon 12:46:00 PM 66.5568 -39.4157 276° West  Level Estimated
Mon 12:47:00 PM 66.5678 -39.7193 275° West  Level Estimated
Mon 12:48:00 PM 66.5783 -40.0231 275° West  Level Estimated
Mon 12:49:00 PM 66.5883 -40.3271 275° West  Level Estimated
Mon 12:50:00 PM 66.5976 -40.6314 275° West  Level Estimated
Mon 12:51:00 PM 66.6063 -40.9359 274° West  Level Estimated
Mon 12:52:00 PM 66.6145 -41.2407 274° West  Level Estimated
Mon 12:53:00 PM 66.6220 -41.5456 274° West  Level Estimated
Mon 12:54:00 PM 66.6290 -41.8507 273° West  Level Estimated
Mon 12:55:00 PM 66.6354 -42.1559 273° West  Level Estimated
Mon 12:56:00 PM 66.6412 -42.4613 273° West  Level Estimated
Mon 12:57:00 PM 66.6464 -42.7668 273° West  Level Estimated
Mon 12:58:00 PM 66.6510 -43.0725 272° West  Level Estimated
Mon 12:59:00 PM 66.6550 -43.3783 272° West  Level Estimated
Mon 01:00:00 PM 66.6584 -43.6841 272° West  Level Estimated
Mon 01:01:00 PM 66.6612 -43.9901 271° West  Level Estimated
Mon 01:02:00 PM 66.6634 -44.2961 271° West  Level Estimated
Mon 01:03:00 PM 66.6650 -44.6021 271° West  Level Estimated
Mon 01:04:00 PM 66.6661 -44.9082 271° West  Level Estimated
Mon 01:05:00 PM 66.6665 -45.2143 270° West  Level Estimated
Mon 01:06:00 PM 66.6663 -45.5204 270° West  Level Estimated
Mon 01:07:00 PM 66.6656 -45.8265 270° West  Level Estimated
Mon 01:08:00 PM 66.6642 -46.1325 270° West  Level Estimated
Mon 01:09:00 PM 66.6623 -46.4386 269° West  Level Estimated
Mon 01:10:00 PM 66.6598 -46.7445 269° West  Level Estimated
Mon 01:11:00 PM 66.6566 -47.0504 269° West  Level Estimated
Mon 01:12:00 PM 66.6529 -47.3562 268° West  Level Estimated
Mon 01:13:00 PM 66.6486 -47.6619 268° West  Level Estimated
Mon 01:14:00 PM 66.6437 -47.9675 268° West  Level Estimated
Mon 01:14:32 PM 67.0270 -49.6680 268° West 466 536 36,000  Level FlightAware ADS-B
Mon 01:15:00 PM 66.6382 -48.2730 268° West  Level Estimated
Mon 01:15:17 PM 67.0200 -49.9140 266° West 465 535 36,000  Level FlightAware ADS-B
Mon 01:15:57 PM 67.0210 -50.1400 271° West 463 533 36,000  Level FlightAware ADS-B
Mon 01:16:37 PM 67.0270 -50.3600 274° West 464 534 36,000  Level FlightAware ADS-B
Mon 01:17:22 PM 67.0300 -50.5810 272° West 465 535 36,000  Level FlightAware ADS-B
Mon 01:18:07 PM 67.0270 -50.8450 268° West 466 536 36,000  Level FlightAware ADS-B
Mon 01:18:47 PM 67.0300 -51.0630 272° West 464 534 36,000  Level FlightAware ADS-B
Mon 01:19:27 PM 67.0350 -51.2880 273° West 464 534 36,000  Level FlightAware ADS-B
Mon 01:20:12 PM 67.0410 -51.5280 274° West 465 535 36,000  Level FlightAware ADS-B
Mon 01:20:52 PM 67.0450 -51.7350 273° West 466 536 36,000  Level FlightAware ADS-B
Mon 01:21:27 PM 67.0490 -51.9130 273° West 466 536 36,000  Level FlightAware ADS-B
Mon 01:22:12 PM 67.0540 -52.1950 273° West 469 540 36,000  Level FlightAware ADS-B
Mon 01:22:47 PM 67.0570 -52.3750 273° West 470 541 36,000  Level FlightAware ADS-B
Mon 01:23:32 PM 67.0600 -52.6050 272° West 470 541 36,000  Level FlightAware ADS-B
Mon 01:24:22 PM 67.0630 -52.8420 272° West 470 541 36,000  Level FlightAware ADS-B
Mon 01:25:02 PM 67.0660 -53.0320 272° West 470 541 36,000  Level FlightAware ADS-B
Mon 01:25:42 PM 67.0680 -53.2220 272° West 470 541 36,000  Level FlightAware ADS-B
Mon 01:26:22 PM 67.0710 -53.4110 272° West 470 541 36,000  Level FlightAware ADS-B
Mon 01:27:02 PM 67.0730 -53.6010 272° West 470 541 36,000  Level FlightAware ADS-B
Mon 01:27:52 PM 67.0770 -53.8380 273° West 470 541 36,000  Level FlightAware ADS-B
Mon 01:28:32 PM 67.0790 -54.0280 272° West 470 541 36,000  Level FlightAware ADS-B
Mon 01:29:12 PM 67.0820 -54.2170 272° West 470 541 36,000  Level FlightAware ADS-B
Mon 01:29:52 PM 67.0840 -54.4070 272° West 470 541 36,000  Level FlightAware ADS-B
Mon 01:30:32 PM 67.0870 -54.5970 272° West 470 541 36,000  Level FlightAware ADS-B
Mon 01:31:22 PM 67.0900 -54.8340 272° West 470 541 36,000  Level FlightAware ADS-B
Mon 01:32:02 PM 67.0930 -55.0240 272° West 470 541 36,000  Level FlightAware ADS-B
Mon 01:32:42 PM 67.0950 -55.2140 272° West 470 541 36,000  Level FlightAware ADS-B
Mon 01:34:10 PM 67.0500 -55.8167 259° West 470 541 36,000  Level Edmonton Center
Mon 01:35:00 PM 67.0462 -55.9187 260° West  Level Estimated
Mon 01:35:10 PM 67.0333 -56.1500 263° West 470 541 36,000  Level Edmonton Center
Mon 01:36:00 PM 67.0240 -56.2242 260° West  Level Estimated
Mon 01:36:10 PM 67.0333 -56.5000 270° West 470 541 36,000  Level Edmonton Center
Mon 01:37:00 PM 67.0012 -56.5291 259° West  Level Estimated
Mon 01:37:10 PM 67.0333 -56.8000 270° West 470 541 36,000  Level Edmonton Center
Mon 01:38:00 PM 66.9779 -56.8335 259° West  Level Estimated
Mon 01:38:10 PM 67.0333 -57.1500 270° West 470 541 36,000  Level Edmonton Center
Mon 01:39:00 PM 66.9539 -57.1372 259° West  Level Estimated
Mon 01:39:10 PM 67.0167 -57.4500 262° West 470 541 36,000  Level Edmonton Center
Mon 01:40:10 PM 67.0167 -57.8000 270° West 470 541 36,000  Level Edmonton Center
Mon 01:41:10 PM 67.0167 -58.1000 270° West 470 541 36,000  Level Edmonton Center
Mon 01:42:10 PM 67.0000 -58.4500 263° West 470 541 36,000  Level Edmonton Center
Mon 01:43:10 PM 67.0000 -58.7500 270° West 460 529 36,000  Level Edmonton Center
Mon 01:44:10 PM 66.9833 -59.0833 263° West 460 529 36,000  Level Edmonton Center
Mon 01:45:10 PM 66.9833 -59.4000 270° West 460 529 36,000  Level Edmonton Center
Mon 01:46:10 PM 66.9667 -59.7333 263° West 460 529 36,000  Level Edmonton Center
Mon 01:47:10 PM 66.9333 -60.0167 253° West 460 529 36,000  Level Edmonton Center
Mon 01:48:10 PM 66.9167 -60.3500 263° West 460 529 36,000  Level Edmonton Center
Mon 01:49:10 PM 66.8667 -60.6667 248° West 460 529 36,000  Level Edmonton Center
Mon 01:50:10 PM 66.8167 -60.9833 248° West 460 529 36,000  Level Edmonton Center
Mon 01:51:10 PM 66.8000 -61.3000 263° West 460 529 36,000  Level Edmonton Center
Mon 01:52:10 PM 66.7500 -61.6167 248° West 470 541 36,000  Level Edmonton Center
Mon 01:53:10 PM 66.7167 -61.9000 254° West 470 541 36,000  Level Edmonton Center
Mon 01:54:10 PM 66.6667 -62.2167 248° West 470 541 36,000  Level Edmonton Center
Mon 01:55:10 PM 66.6333 -62.5333 255° West 470 541 36,000  Level Edmonton Center
Mon 01:56:10 PM 66.5833 -62.8333 247° West 470 541 36,000  Level Edmonton Center
Mon 01:57:10 PM 66.5667 -63.1500 263° West 480 552 36,000  Level Edmonton Center
Mon 01:58:10 PM 66.5167 -63.4667 249° West 480 552 36,000  Level Edmonton Center
Mon 01:59:10 PM 66.4667 -63.7500 246° West 480 552 36,000  Level Edmonton Center
Mon 02:00:10 PM 66.4333 -64.0833 256° West 480 552 36,000  Level Edmonton Center
Mon 02:01:10 PM 66.3833 -64.3833 248° West 480 552 36,000  Level Edmonton Center
Mon 02:02:10 PM 66.3500 -64.7000 255° West 480 552 36,000  Level Edmonton Center
Mon 02:03:10 PM 66.3000 -65.0000 248° West 480 552 36,000  Level Edmonton Center
Mon 02:04:10 PM 66.2333 -65.3000 241° Southwest 480 552 36,000  Level Edmonton Center
Mon 02:05:10 PM 66.2000 -65.6167 256° West 480 552 36,000  Level Edmonton Center
Mon 02:06:10 PM 66.1500 -65.9167 248° West 480 552 36,000  Level Edmonton Center
Mon 02:07:10 PM 66.1000 -66.2500 250° West 480 552 36,000  Level Edmonton Center
Mon 02:08:10 PM 66.0500 -66.5167 245° Southwest 480 552 36,000  Level Edmonton Center
Mon 02:09:10 PM 66.0000 -66.8500 250° West 480 552 36,000  Level Edmonton Center
Mon 02:10:10 PM 65.9500 -67.1500 248° West 480 552 36,000  Level Edmonton Center
Mon 02:11:10 PM 65.9000 -67.4667 249° West 480 552 36,000  Level Edmonton Center
Mon 02:12:10 PM 65.8500 -67.7333 245° Southwest 480 552 36,000  Level Edmonton Center
Mon 02:13:10 PM 65.8000 -68.0333 248° West 480 552 36,000  Level Edmonton Center
Mon 02:14:10 PM 65.7500 -68.3333 248° West 470 541 36,000  Level Edmonton Center
Mon 02:15:10 PM 65.7000 -68.6000 246° West 450 518 36,000  Level Edmonton Center
Mon 02:16:10 PM 65.6500 -68.8833 247° West 460 529 36,000  Level Edmonton Center
Mon 02:17:10 PM 65.6000 -69.1833 248° West 460 529 36,000  Level Edmonton Center
Mon 02:18:10 PM 65.5333 -69.4667 240° Southwest 460 529 36,000  Level Edmonton Center
Mon 02:19:10 PM 65.4833 -69.7333 246° West 460 529 36,000  Level Edmonton Center
Mon 02:20:10 PM 65.4500 -70.0333 255° West 450 518 36,000  Level Edmonton Center
Mon 02:21:10 PM 65.4000 -70.3000 246° West 450 518 36,000  Level Edmonton Center
Mon 02:22:10 PM 65.3500 -70.5833 247° West 450 518 36,000  Level Edmonton Center
Mon 02:23:10 PM 65.3000 -70.8500 246° West 450 518 36,000  Level Edmonton Center
Mon 02:24:10 PM 65.2667 -71.1333 254° West 450 518 36,000  Level Edmonton Center
Mon 02:25:10 PM 65.2000 -71.4000 239° Southwest 450 518 36,000  Level Edmonton Center
Mon 02:26:10 PM 65.1667 -71.6833 254° West 440 506 36,000  Level Edmonton Center
Mon 02:27:10 PM 65.1167 -71.9333 245° Southwest 450 518 36,000  Level Edmonton Center
Mon 02:28:10 PM 65.0500 -72.2000 239° Southwest 450 518 36,000  Level Edmonton Center
Mon 02:29:10 PM 65.0000 -72.4833 247° West 440 506 36,000  Level Edmonton Center
Mon 02:30:10 PM 64.9500 -72.7333 245° Southwest 450 518 36,000  Level Edmonton Center
Mon 02:31:10 PM 64.9167 -73.0000 254° West 440 506 36,000  Level Edmonton Center
Mon 02:32:10 PM 64.8667 -73.2500 245° Southwest 450 518 36,000  Level Edmonton Center
Mon 02:33:10 PM 64.8000 -73.5000 238° Southwest 450 518 36,000  Level Edmonton Center
Mon 02:34:10 PM 64.7500 -73.8000 249° West 440 506 36,000  Level Edmonton Center
Mon 02:35:10 PM 64.7000 -74.0667 246° West 440 506 36,000  Level Edmonton Center
Mon 02:36:10 PM 64.6500 -74.3167 245° Southwest 440 506 36,000  Level Edmonton Center
Mon 02:37:10 PM 64.5833 -74.5500 236° Southwest 450 518 36,000  Level Edmonton Center
Mon 02:38:10 PM 64.5333 -74.8333 248° West 450 518 36,000  Level Edmonton Center
Mon 02:39:10 PM 64.4833 -75.0833 245° Southwest 450 518 36,000  Level Edmonton Center
Mon 02:40:10 PM 64.4333 -75.3500 247° West 450 518 36,000  Level Edmonton Center
Mon 02:41:10 PM 64.3667 -75.6333 242° Southwest 450 518 36,000  Level Edmonton Center
Mon 02:42:10 PM 64.3167 -75.8667 244° Southwest 450 518 36,000  Level Edmonton Center
Mon 02:43:10 PM 64.2667 -76.1500 248° West 450 518 36,000  Level Edmonton Center
Mon 02:44:10 PM 64.2167 -76.3667 242° Southwest 450 518 36,000  Level Edmonton Center
Mon 02:45:10 PM 64.1500 -76.6333 240° Southwest 450 518 36,000  Level Edmonton Center
Mon 02:46:10 PM 64.1000 -76.9167 248° West 450 518 36,000  Level Edmonton Center
Mon 02:47:10 PM 64.0500 -77.1833 247° West 450 518 36,000  Level Edmonton Center
Mon 02:48:10 PM 64.0000 -77.4333 246° West 450 518 36,000  Level Edmonton Center
Mon 02:49:10 PM 63.9500 -77.7000 247° West 450 518 36,000  Level Edmonton Center
Mon 02:50:10 PM 63.9000 -77.9500 246° West 450 518 36,000  Level Edmonton Center
Mon 02:51:10 PM 63.8500 -78.2167 247° West 450 518 36,000  Level Edmonton Center
Mon 02:52:10 PM 63.7833 -78.4833 241° Southwest 450 518 36,000  Level Edmonton Center
Mon 02:53:10 PM 63.7500 -78.7333 253° West 450 518 36,000  Level Edmonton Center
Mon 02:54:10 PM 63.6833 -78.9667 237° Southwest 450 518 36,000  Level Edmonton Center
Mon 02:55:10 PM 63.6167 -79.2333 241° Southwest 450 518 36,000  Level Edmonton Center
Mon 02:56:10 PM 63.5667 -79.4667 244° Southwest 450 518 36,000  Level Edmonton Center
Mon 02:57:10 PM 63.5167 -79.7333 247° West 450 518 36,000  Level Edmonton Center
Mon 02:58:10 PM 63.4500 -80.0000 241° Southwest 450 518 36,000  Level Edmonton Center
Mon 02:59:10 PM 63.3833 -80.2500 239° Southwest 450 518 36,000  Level Edmonton Center
Mon 03:00:10 PM 63.3500 -80.5000 254° West 450 518 36,000  Level Edmonton Center
Mon 03:01:10 PM 63.2833 -80.7500 239° Southwest 450 518 36,000 50 Level Edmonton Center
Mon 03:02:10 PM 63.2167 -80.9667 236° Southwest 460 529 36,100 100 Climbing Edmonton Center
Mon 03:03:10 PM 63.1500 -81.2167 240° Southwest 460 529 36,200 100 Climbing Edmonton Center
Mon 03:04:10 PM 63.0833 -81.4833 241° Southwest 460 529 36,300 150 Climbing Edmonton Center
Mon 03:05:10 PM 63.0167 -81.7333 240° Southwest 470 541 36,500 100 Climbing Edmonton Center
Mon 03:06:10 PM 62.9500 -81.9833 240° Southwest 460 529 36,500 50 Level Edmonton Center
Mon 03:07:10 PM 62.9000 -82.2167 245° Southwest 450 518 36,600 50 Climbing Edmonton Center
Mon 03:08:10 PM 62.8333 -82.4667 240° Southwest 450 518 36,600  Level Edmonton Center
Mon 03:09:10 PM 62.7667 -82.7167 240° Southwest 450 518 36,600  Level Edmonton Center
Mon 03:10:10 PM 62.7000 -82.9667 240° Southwest 450 518 36,600 50 Level Edmonton Center
Mon 03:11:10 PM 62.6500 -83.1667 242° Southwest 450 518 36,700 50 Climbing Edmonton Center
Mon 03:12:10 PM 62.5833 -83.4000 238° Southwest 450 518 36,700  Level Edmonton Center
Mon 03:13:10 PM 62.5167 -83.6500 240° Southwest 450 518 36,700  Level Edmonton Center
Mon 03:14:10 PM 62.4333 -83.8833 232° Southwest 450 518 36,700  Level Edmonton Center
Mon 03:15:10 PM 62.3667 -84.1333 240° Southwest 450 518 36,700  Level Edmonton Center
Mon 03:16:10 PM 62.3167 -84.3667 245° Southwest 450 518 36,700  Level Edmonton Center
Mon 03:17:10 PM 62.2500 -84.5667 234° Southwest 460 529 36,700  Level Edmonton Center
Mon 03:18:10 PM 62.1667 -84.8000 233° Southwest 460 529 36,700  Level Edmonton Center
Mon 03:19:10 PM 62.1000 -85.0333 239° Southwest 460 529 36,700  Level Edmonton Center
Mon 03:20:10 PM 62.0333 -85.2833 240° Southwest 460 529 36,700  Level Edmonton Center
Mon 03:21:10 PM 61.9667 -85.5167 239° Southwest 460 529 36,700  Level Edmonton Center
Mon 03:22:10 PM 61.8833 -85.7500 233° Southwest 460 529 36,700 50 Level Edmonton Center
Mon 03:23:10 PM 61.8333 -85.9667 244° Southwest 460 529 36,800 50 Climbing Edmonton Center
Mon 03:24:10 PM 61.7500 -86.2000 233° Southwest 460 529 36,800  Level Edmonton Center
Mon 03:25:10 PM 61.6833 -86.4333 239° Southwest 460 529 36,800  Level Edmonton Center
Mon 03:26:10 PM 61.6167 -86.6667 239° Southwest 460 529 36,800  Level Edmonton Center
Mon 03:27:10 PM 61.5333 -86.8833 231° Southwest 460 529 36,800  Level Edmonton Center
Mon 03:28:10 PM 61.4667 -87.1167 239° Southwest 460 529 36,800 100 Level Edmonton Center
Mon 03:29:10 PM 61.3833 -87.3167 229° Southwest 460 529 37,000 100 Climbing Edmonton Center
Mon 03:30:10 PM 61.3167 -87.5333 237° Southwest 460 529 37,000  Level Edmonton Center
Mon 03:31:10 PM 61.2500 -87.7500 237° Southwest 460 529 37,000  Level Edmonton Center
Mon 03:32:10 PM 61.1667 -87.9667 231° Southwest 460 529 37,000  Level Edmonton Center
Mon 03:33:10 PM 61.1000 -88.2000 239° Southwest 460 529 37,000  Level Edmonton Center
Mon 03:34:10 PM 61.0167 -88.4167 232° Southwest 460 529 37,000  Level Edmonton Center
Mon 03:35:10 PM 60.9500 -88.6333 238° Southwest 460 529 37,000  Level Edmonton Center
Mon 03:36:10 PM 60.8833 -88.8500 238° Southwest 460 529 37,000  Level Edmonton Center
Mon 03:37:10 PM 60.8000 -89.0667 232° Southwest 460 529 37,000  Level Edmonton Center
Mon 03:38:10 PM 60.7167 -89.2833 232° Southwest 460 529 37,000  Level Edmonton Center
Mon 03:39:10 PM 60.6333 -89.4667 227° Southwest 450 518 37,000  Level Edmonton Center
Mon 03:40:10 PM 60.5667 -89.6833 238° Southwest 450 518 37,000  Level Edmonton Center
Mon 03:41:10 PM 60.5000 -89.8833 236° Southwest 450 518 37,000  Level Edmonton Center
Mon 03:42:10 PM 60.4167 -90.1000 232° Southwest 450 518 37,000  Level Edmonton Center
Mon 03:43:10 PM 60.3333 -90.2833 227° Southwest 450 518 37,000  Level Edmonton Center
Mon 03:44:10 PM 60.2500 -90.5000 232° Southwest 450 518 37,000  Level Edmonton Center
Mon 03:45:10 PM 60.1833 -90.7000 236° Southwest 450 518 37,000  Level Edmonton Center
Mon 03:46:10 PM 60.1000 -90.8667 225° Southwest 450 518 37,000  Level Edmonton Center
Mon 03:47:10 PM 60.0333 -91.0833 238° Southwest 450 518 37,000 200 Level Edmonton Center
Mon 03:48:10 PM 59.9500 -91.2833 230° Southwest 450 518 37,400 500 Climbing Edmonton Center
Mon 03:49:10 PM 59.8667 -91.4667 228° Southwest 450 518 38,000 300 Climbing Edmonton Center
Mon 03:50:10 PM 59.7833 -91.6667 230° Southwest 450 518 38,000  Level Edmonton Center
Mon 03:51:10 PM 59.7167 -91.8667 237° Southwest 450 518 38,000  Level Edmonton Center
Mon 03:52:10 PM 59.6167 -92.0333 220° Southwest 450 518 38,000  Level Edmonton Center
Mon 03:53:10 PM 59.5333 -92.2333 231° Southwest 450 518 38,000  Level Edmonton Center
Mon 03:54:10 PM 59.4500 -92.4333 231° Southwest 450 518 38,000  Level Edmonton Center
Mon 03:55:10 PM 59.3667 -92.6000 226° Southwest 440 506 38,000  Level Edmonton Center
Mon 03:56:10 PM 59.3000 -92.8000 237° Southwest 440 506 38,000  Level Edmonton Center
Mon 03:57:10 PM 59.2167 -93.0000 231° Southwest 450 518 38,000  Level Edmonton Center
Mon 03:58:10 PM 59.1333 -93.1667 226° Southwest 440 506 38,000  Level Edmonton Center
Mon 03:59:10 PM 59.0500 -93.3667 231° Southwest 450 518 38,000  Level Edmonton Center
Mon 04:00:10 PM 58.9833 -93.5500 235° Southwest 450 518 38,000  Level Edmonton Center
Mon 04:01:10 PM 58.8833 -93.7167 221° Southwest 450 518 38,000  Level Edmonton Center
Mon 04:02:10 PM 58.8000 -93.9167 231° Southwest 450 518 38,000  Level Edmonton Center
Mon 04:03:10 PM 58.7167 -94.1000 229° Southwest 450 518 38,000  Level Edmonton Center
Mon 04:04:10 PM 58.6333 -94.3000 231° Southwest 450 518 38,000  Level Edmonton Center
Mon 04:05:10 PM 58.5333 -94.4500 218° Southwest 450 518 38,000  Level Edmonton Center
Mon 04:06:10 PM 58.4500 -94.6500 232° Southwest 450 518 38,000  Level Edmonton Center
Mon 04:07:10 PM 58.3667 -94.8333 229° Southwest 450 518 38,000  Level Edmonton Center
Mon 04:08:10 PM 58.2833 -95.0167 229° Southwest 450 518 38,000  Level Edmonton Center
Mon 04:09:10 PM 58.1833 -95.1833 221° Southwest 450 518 38,000  Level Edmonton Center
Mon 04:10:10 PM 58.1167 -95.3667 236° Southwest 450 518 38,000  Level Edmonton Center
Mon 04:11:10 PM 58.0333 -95.5500 229° Southwest 450 518 38,000  Level Edmonton Center
Mon 04:12:10 PM 57.9333 -95.7000 219° Southwest 450 518 38,000  Level Edmonton Center
Mon 04:13:10 PM 57.8500 -95.8833 230° Southwest 450 518 38,000  Level Edmonton Center
Mon 04:14:10 PM 57.7500 -96.0667 224° Southwest 450 518 38,000  Level Edmonton Center
Mon 04:15:10 PM 57.6667 -96.2167 224° Southwest 450 518 38,000  Level Edmonton Center
Mon 04:16:10 PM 57.6000 -96.4000 236° Southwest 450 518 38,000  Level Edmonton Center
Mon 04:17:10 PM 57.5000 -96.5833 225° Southwest 440 506 38,000  Level Edmonton Center
Mon 04:17:46 PM 57.4833 -96.6833 253° West 450 518 38,000  Level Winnipeg Center
Mon 04:18:46 PM 57.3833 -96.8667 225° Southwest 450 518 38,000  Level Winnipeg Center
Mon 04:19:10 PM 57.3167 -96.9000 195° South 440 506 38,000  Level Edmonton Center
Mon 04:20:10 PM 57.2333 -97.0500 224° Southwest 440 506 38,000  Level Edmonton Center
Mon 04:21:10 PM 57.1500 -97.2167 227° Southwest 440 506 38,000  Level Edmonton Center
Mon 04:22:10 PM 57.0667 -97.4000 230° Southwest 440 506 38,000  Level Edmonton Center
Mon 04:23:10 PM 56.9667 -97.5500 219° Southwest 440 506 38,000  Level Edmonton Center
Mon 04:23:46 PM 56.9333 -97.6667 242° Southwest 450 518 38,000  Level Winnipeg Center
Mon 04:24:46 PM 56.8500 -97.8167 225° Southwest 450 518 38,000  Level Winnipeg Center
Mon 04:25:46 PM 56.7500 -98.0000 225° Southwest 450 518 38,000  Level Winnipeg Center
Mon 04:26:46 PM 56.6667 -98.1500 225° Southwest 450 518 38,000  Level Winnipeg Center
Mon 04:27:46 PM 56.5833 -98.3333 231° Southwest 450 518 38,000  Level Winnipeg Center
Mon 04:28:46 PM 56.5000 -98.4833 225° Southwest 450 518 38,000  Level Winnipeg Center
Mon 04:29:46 PM 56.4000 -98.6167 216° Southwest 450 518 38,000  Level Winnipeg Center
Mon 04:30:46 PM 56.3167 -98.7667 225° Southwest 450 518 38,000  Level Winnipeg Center
Mon 04:31:46 PM 56.2167 -98.9500 226° Southwest 440 506 38,000  Level Winnipeg Center
Mon 04:32:46 PM 56.1333 -99.1000 225° Southwest 440 506 38,000  Level Winnipeg Center
Mon 04:33:10 PM 56.0833 -99.1167 191° South 430 495 38,000  Level Edmonton Center
Mon 04:34:10 PM 55.9833 -99.2833 223° Southwest 440 506 38,000  Level Edmonton Center
Mon 04:35:10 PM 55.9167 -99.4167 228° Southwest 430 495 38,000  Level Edmonton Center
Mon 04:36:10 PM 55.8167 -99.5833 223° Southwest 430 495 38,000  Level Edmonton Center
Mon 04:37:10 PM 55.7333 -99.7167 222° Southwest 430 495 38,000  Level Edmonton Center
Mon 04:38:10 PM 55.6500 -99.8833 228° Southwest 430 495 38,000  Level Edmonton Center
Mon 04:38:46 PM 55.6000 -99.9833 229° Southwest 440 506 38,000  Level Winnipeg Center
Mon 04:39:10 PM 55.5500 -100.0167 201° Southwest 430 495 38,000  Level Edmonton Center
Mon 04:44:37 PM 54.9990 -100.6710 201° Southwest 449 517 38,000  Level FlightAware ADS-B
Mon 04:45:17 PM 54.9390 -100.7370 212° Southwest 449 517 38,000  Level FlightAware ADS-B
Mon 04:45:57 PM 54.8790 -100.8020 212° Southwest 449 517 38,000  Level FlightAware ADS-B
Mon 04:46:42 PM 54.7800 -100.9100 212° Southwest 447 514 38,000  Level FlightAware ADS-B
Mon 04:47:32 PM 54.6990 -100.9970 212° Southwest 446 513 38,000  Level FlightAware ADS-B
Mon 04:48:12 PM 54.6200 -101.0820 212° Southwest 445 512 38,000  Level FlightAware ADS-B
Mon 04:49:02 PM 54.5320 -101.1760 212° Southwest 444 511 38,000  Level FlightAware ADS-B
Mon 04:49:47 PM 54.4540 -101.2600 212° Southwest 444 511 38,000  Level FlightAware ADS-B
Mon 04:50:57 PM 54.3510 -101.3690 212° Southwest 443 510 38,000  Level FlightAware ADS-B
Mon 04:51:37 PM 54.2640 -101.4600 211° Southwest 443 510 38,000  Level FlightAware ADS-B
Mon 04:52:22 PM 54.1850 -101.5430 212° Southwest 443 510 38,000  Level FlightAware ADS-B
Mon 04:53:02 PM 54.1230 -101.6070 211° Southwest 443 510 38,000  Level FlightAware ADS-B
Mon 04:54:12 PM 53.9950 -101.7400 211° Southwest 443 510 38,000  Level FlightAware ADS-B
Mon 04:54:52 PM 53.9280 -101.8100 212° Southwest 444 511 38,000  Level FlightAware ADS-B
Mon 04:55:37 PM 53.8470 -101.8930 211° Southwest 444 511 38,000  Level FlightAware ADS-B
Mon 04:56:17 PM 53.7710 -101.9700 211° Southwest 446 513 38,000  Level FlightAware ADS-B
Mon 04:56:57 PM 53.7010 -102.0420 211° Southwest 445 512 38,000  Level FlightAware ADS-B
Mon 04:57:42 PM 53.6290 -102.1150 211° Southwest 445 512 38,000  Level FlightAware ADS-B
Mon 04:58:22 PM 53.5580 -102.1870 211° Southwest 445 512 38,000  Level FlightAware ADS-B
Mon 04:58:57 PM 53.4950 -102.2510 211° Southwest 445 512 38,000  Level FlightAware ADS-B
Mon 04:59:47 PM 53.4050 -102.3400 211° Southwest 445 512 38,000  Level FlightAware ADS-B
Mon 05:00:57 PM 53.2830 -102.4630 211° Southwest 446 513 38,000  Level FlightAware ADS-B
Mon 05:01:42 PM 53.2180 -102.5270 211° Southwest 445 512 38,000  Level FlightAware ADS-B
Mon 05:02:32 PM 53.1180 -102.6260 211° Southwest 443 510 38,000  Level FlightAware ADS-B
Mon 05:03:12 PM 53.0580 -102.6860 211° Southwest 443 510 38,000  Level FlightAware ADS-B
Mon 05:04:02 PM 52.9830 -102.7610 211° Southwest 443 510 38,000  Level FlightAware ADS-B
Mon 05:04:42 PM 52.9240 -102.8200 211° Southwest 443 510 38,000  Level FlightAware ADS-B
Mon 05:05:22 PM 52.8640 -102.8800 211° Southwest 443 510 38,000  Level FlightAware ADS-B
Mon 05:06:02 PM 52.8040 -102.9390 211° Southwest 443 510 38,000  Level FlightAware ADS-B
Mon 05:06:42 PM 52.7450 -102.9980 211° Southwest 443 510 38,000  Level FlightAware ADS-B
Mon 05:07:32 PM 52.6700 -103.0720 211° Southwest 443 510 38,000  Level FlightAware ADS-B
Mon 05:08:12 PM 52.6100 -103.1310 211° Southwest 443 510 38,000  Level FlightAware ADS-B
Mon 05:08:52 PM 52.5500 -103.1910 211° Southwest 443 510 38,000  Level FlightAware ADS-B
Mon 05:09:32 PM 52.4910 -103.2500 211° Southwest 443 510 38,000  Level FlightAware ADS-B
Mon 05:10:12 PM 52.4310 -103.3080 211° Southwest 443 510 38,000  Level FlightAware ADS-B
Mon 05:11:02 PM 52.3560 -103.3820 211° Southwest 443 510 38,000  Level FlightAware ADS-B
Mon 05:11:42 PM 52.2970 -103.4410 211° Southwest 443 510 38,000  Level FlightAware ADS-B
Mon 05:15:27 PM 51.8310 -103.8500 209° Southwest 38,000  Level FlightAware ADS-B
Mon 05:16:52 PM 51.6640 -104.0030 210° Southwest 438 504 38,000  Level FlightAware ADS-B
Mon 05:17:27 PM 51.6000 -104.0610 209° Southwest 438 504 38,000  Level FlightAware ADS-B
Mon 05:18:17 PM 51.5080 -104.1440 209° Southwest 439 505 38,000  Level FlightAware ADS-B
Mon 05:19:07 PM 51.4420 -104.2040 210° Southwest 439 505 38,000  Level FlightAware ADS-B
Mon 05:20:02 PM 51.3440 -104.2920 209° Southwest 441 507 38,000  Level FlightAware ADS-B
Mon 05:20:52 PM 51.2610 -104.3670 209° Southwest 442 509 38,000  Level FlightAware ADS-B
Mon 05:21:32 PM 51.1800 -104.4390 209° Southwest 445 512 38,000  Level FlightAware ADS-B
Mon 05:22:12 PM 51.1090 -104.5020 209° Southwest 445 512 38,000  Level FlightAware ADS-B
Mon 05:23:07 PM 51.0110 -104.5890 209° Southwest 448 516 38,000  Level FlightAware ADS-B
Mon 05:23:47 PM 50.9290 -104.6610 209° Southwest 450 518 38,000  Level FlightAware ADS-B
Mon 05:24:32 PM 50.8510 -104.7300 209° Southwest 450 518 38,000  Level FlightAware ADS-B
Mon 05:25:12 PM 50.7720 -104.7990 209° Southwest 451 519 38,000  Level FlightAware ADS-B
Mon 05:25:57 PM 50.6960 -104.8640 208° Southwest 451 519 38,000  Level FlightAware ADS-B
Mon 05:26:42 PM 50.6150 -104.9290 207° Southwest 454 522 38,000  Level FlightAware ADS-B
Mon 05:27:22 PM 50.5530 -104.9750 205° Southwest 455 524 38,000  Level FlightAware ADS-B
Mon 05:28:07 PM 50.4570 -105.0460 205° Southwest 455 524 38,000  Level FlightAware ADS-B
Mon 05:28:47 PM 50.3860 -105.0990 205° Southwest 456 525 38,000  Level FlightAware ADS-B
Mon 05:29:22 PM 50.3260 -105.1430 205° Southwest 455 524 38,000  Level FlightAware ADS-B
Mon 05:30:02 PM 50.2470 -105.2010 205° Southwest 455 524 38,000  Level FlightAware ADS-B
Mon 05:30:47 PM 50.1570 -105.2670 205° Southwest 455 524 38,000  Level FlightAware ADS-B
Mon 05:31:37 PM 50.0780 -105.3250 205° Southwest 455 524 38,000  Level FlightAware ADS-B
Mon 05:32:12 PM 49.9940 -105.3860 205° Southwest 454 522 38,000  Level FlightAware ADS-B
Mon 05:32:57 PM 49.9010 -105.4530 205° Southwest 452 520 38,000  Level FlightAware ADS-B
Mon 05:33:37 PM 49.8220 -105.5100 205° Southwest 450 518 38,000  Level FlightAware ADS-B
Mon 05:34:22 PM 49.7400 -105.5690 205° Southwest 447 514 38,000  Level FlightAware ADS-B
Mon 05:35:02 PM 49.6640 -105.6230 205° Southwest 446 513 38,000  Level FlightAware ADS-B
Mon 05:35:42 PM 49.6150 -105.6580 205° Southwest 443 510 38,000  Level FlightAware ADS-B
Mon 05:36:27 PM 49.5490 -105.7040 204° Southwest 442 509 38,000  Level FlightAware ADS-B
Mon 05:37:07 PM 49.4860 -105.7470 204° Southwest 442 509 38,000  Level FlightAware ADS-B
Mon 05:37:47 PM 49.4220 -105.7910 204° Southwest 442 509 38,000  Level FlightAware ADS-B
Mon 05:38:37 PM 49.3430 -105.8450 204° Southwest 442 509 38,000  Level FlightAware ADS-B
Mon 05:39:17 PM 49.2790 -105.8890 204° Southwest 442 509 38,000  Level FlightAware ADS-B
Mon 05:39:57 PM 49.2160 -105.9320 204° Southwest 442 509 38,000  Level FlightAware ADS-B
Mon 05:40:37 PM 49.1520 -105.9750 204° Southwest 442 509 38,000  Level FlightAware ADS-B
Mon 05:41:17 PM 49.0890 -106.0180 204° Southwest 442 509 38,000  Level FlightAware ADS-B
Mon 05:41:57 PM 49.0250 -106.0620 204° Southwest 442 509 38,000  Level FlightAware ADS-B
Mon 05:42:47 PM 48.9460 -106.1150 204° Southwest 442 509 38,000  Level FlightAware ADS-B
Mon 05:43:27 PM 48.8820 -106.1580 204° Southwest 442 509 38,000  Level FlightAware ADS-B
Mon 05:44:07 PM 48.8190 -106.2010 204° Southwest 442 509 38,000  Level FlightAware ADS-B
Mon 05:44:47 PM 48.7550 -106.2440 204° Southwest 442 509 38,000  Level FlightAware ADS-B
Mon 05:45:27 PM 48.6920 -106.2870 204° Southwest 442 509 38,000 2,034 Level FlightAware ADS-B
Mon 05:45:46 PM 48.3667 -106.5500 204° Southwest 450 518 40,000 1,519 Climbing Winnipeg Center
Mon 05:46:46 PM 48.2667 -106.6000 198° South 450 518 40,000  Level Winnipeg Center
Mon 05:47:46 PM 48.1333 -106.7000 207° Southwest 450 518 40,000  Level Winnipeg Center
Mon 05:48:46 PM 48.0500 -106.7833 214° Southwest 450 518 40,000  Level Winnipeg Center
Mon 05:49:46 PM 47.9167 -106.8833 207° Southwest 450 518 40,000  Level Winnipeg Center
Mon 05:50:46 PM 47.8167 -106.9667 209° Southwest 440 506 40,000  Level Winnipeg Center
Mon 05:51:46 PM 47.7167 -107.0500 209° Southwest 450 518 40,000  Level Winnipeg Center
Mon 05:52:46 PM 47.5833 -107.1500 207° Southwest 450 518 40,000  Level Winnipeg Center
Mon 05:53:46 PM 47.5000 -107.2167 208° Southwest 450 518 40,000  Level Winnipeg Center
Mon 05:54:46 PM 47.3667 -107.3167 207° Southwest 450 518 40,000  Level Winnipeg Center
Mon 05:56:00 PM 47.2742 -107.3947 210° Southwest 448 516 40,000  Level Salt Lake Center
Mon 05:57:01 PM 47.1683 -107.4781 208° Southwest 450 518 40,000  Level Salt Lake Center
Mon 05:58:03 PM 47.0464 -107.5742 208° Southwest 447 514 40,000  Level Salt Lake Center
Mon 05:59:05 PM 46.9419 -107.6581 209° Southwest 448 516 40,000  Level Salt Lake Center
Mon 06:00:06 PM 46.8192 -107.7550 208° Southwest 448 516 40,000  Level Salt Lake Center
Mon 06:01:08 PM 46.7167 -107.8364 209° Southwest 443 510 40,000 -48 Level Salt Lake Center
Mon 06:02:10 PM 46.5983 -107.9228 207° Southwest 428 493 39,900 -634 Descending Salt Lake Center
Mon 06:03:11 PM 46.4947 -108.0042 208° Southwest 440 506 38,700 -927 Descending Salt Lake Center
Mon 06:04:13 PM 46.3906 -108.0758 205° Southwest 432 497 38,000 -341 Descending Salt Lake Center
Mon 06:05:14 PM 46.2697 -108.1603 206° Southwest 431 496 38,000  Level Salt Lake Center
Mon 06:06:16 PM 46.1664 -108.2336 206° Southwest 432 497 38,000  Level Salt Lake Center
Mon 06:07:17 PM 46.0464 -108.3175 206° Southwest 430 495 38,000  Level Salt Lake Center
Mon 06:08:19 PM 45.9436 -108.3889 206° Southwest 429 494 38,000  Level Salt Lake Center
Mon 06:09:20 PM 45.8239 -108.4719 206° Southwest 429 494 38,000  Level Salt Lake Center
Mon 06:10:22 PM 45.7208 -108.5439 206° Southwest 431 496 38,000  Level Salt Lake Center
Mon 06:11:24 PM 45.6156 -108.6147 205° Southwest 435 501 38,000  Level Salt Lake Center
Mon 06:12:25 PM 45.4928 -108.6986 206° Southwest 439 505 38,000  Level Salt Lake Center
Mon 06:13:27 PM 45.3878 -108.7697 205° Southwest 436 502 38,000  Level Salt Lake Center
Mon 06:14:28 PM 45.2689 -108.8522 206° Southwest 429 494 38,000  Level Salt Lake Center
Mon 06:15:30 PM 45.1661 -108.9203 205° Southwest 427 491 38,000  Level Salt Lake Center
Mon 06:16:31 PM 45.0464 -109.0008 205° Southwest 427 491 38,000  Level Salt Lake Center
Mon 06:17:33 PM 44.9411 -109.0708 205° Southwest 434 499 38,000  Level Salt Lake Center
Mon 06:18:35 PM 44.8356 -109.1400 205° Southwest 438 504 38,000  Level Salt Lake Center
Mon 06:19:36 PM 44.7094 -109.2231 205° Southwest 447 514 38,000  Level Salt Lake Center
Mon 06:20:38 PM 44.6022 -109.2928 205° Southwest 446 513 38,000  Level Salt Lake Center
Mon 06:21:39 PM 44.4789 -109.3747 205° Southwest 440 506 38,000  Level Salt Lake Center
Mon 06:22:41 PM 44.3725 -109.4444 205° Southwest 440 506 38,000  Level Salt Lake Center
Mon 06:23:43 PM 44.2531 -109.5214 205° Southwest 439 505 38,000  Level Salt Lake Center
Mon 06:24:44 PM 44.1458 -109.5903 205° Southwest 440 506 38,000  Level Salt Lake Center
Mon 06:25:46 PM 44.0206 -109.6694 204° Southwest 441 507 38,000  Level Salt Lake Center
Mon 06:26:47 PM 43.9133 -109.7383 205° Southwest 442 509 38,000  Level Salt Lake Center
Mon 06:27:49 PM 43.8067 -109.8058 205° Southwest 439 505 38,000  Level Salt Lake Center
Mon 06:28:50 PM 43.6808 -109.8864 205° Southwest 443 510 38,000  Level Salt Lake Center
Mon 06:29:52 PM 43.5728 -109.9536 204° Southwest 444 511 38,000  Level Salt Lake Center
Mon 06:30:53 PM 43.4553 -110.0281 205° Southwest 437 503 38,000  Level Salt Lake Center
Mon 06:31:55 PM 43.3444 -110.0869 201° Southwest 443 510 38,000  Level Salt Lake Center
Mon 06:32:56 PM 43.2275 -110.1511 202° Southwest 444 511 38,000  Level Salt Lake Center
Mon 06:33:58 PM 43.0992 -110.2250 203° Southwest 445 512 38,000  Level Salt Lake Center
Mon 06:35:00 PM 42.9886 -110.2864 202° Southwest 447 514 38,000  Level Salt Lake Center
Mon 06:36:01 PM 42.8647 -110.3544 202° Southwest 458 527 38,000  Level Salt Lake Center
Mon 06:41:22 PM 42.2440 -110.7510 202° Southwest 449 517 38,000  Level FlightAware ADS-B
Mon 06:42:02 PM 42.1710 -110.7980 206° Southwest 449 517 38,000  Level FlightAware ADS-B
Mon 06:42:37 PM 42.1140 -110.8340 205° Southwest 449 517 38,000  Level FlightAware ADS-B
Mon 06:44:37 PM 41.8840 -110.9830 206° Southwest 450 518 38,000  Level FlightAware ADS-B
Mon 06:46:02 PM 41.7260 -111.0840 206° Southwest 448 516 38,000  Level FlightAware ADS-B
Mon 06:46:42 PM 41.6500 -111.1320 205° Southwest 450 518 38,000  Level FlightAware ADS-B
Mon 06:47:22 PM 41.5820 -111.1760 206° Southwest 449 517 38,000  Level FlightAware ADS-B
Mon 06:48:07 PM 41.4900 -111.2340 205° Southwest 451 519 38,000  Level FlightAware ADS-B
Mon 06:48:47 PM 41.4080 -111.2860 205° Southwest 460 529 38,000  Level FlightAware ADS-B
Mon 06:49:32 PM 41.3200 -111.3410 205° Southwest 465 535 38,000  Level FlightAware ADS-B
Mon 06:50:12 PM 41.2410 -111.3910 205° Southwest 462 532 38,000  Level FlightAware ADS-B
Mon 06:50:52 PM 41.1630 -111.4400 205° Southwest 467 537 38,000  Level FlightAware ADS-B
Mon 06:51:37 PM 41.0750 -111.4950 205° Southwest 462 532 38,000  Level FlightAware ADS-B
Mon 06:52:17 PM 40.9960 -111.5440 205° Southwest 462 532 38,000  Level FlightAware ADS-B
Mon 06:53:02 PM 40.9080 -111.5990 205° Southwest 467 537 38,000  Level FlightAware ADS-B
Mon 06:53:42 PM 40.8300 -111.6480 205° Southwest 467 537 38,000  Level FlightAware ADS-B
Mon 06:54:12 PM 40.7710 -111.6850 205° Southwest 460 529 38,000  Level FlightAware ADS-B
Mon 06:54:52 PM 40.6930 -111.7330 205° Southwest 460 529 38,000  Level FlightAware ADS-B
Mon 06:55:37 PM 40.6050 -111.7870 205° Southwest 466 536 38,000  Level FlightAware ADS-B
Mon 06:56:17 PM 40.5270 -111.8350 205° Southwest 466 536 38,000  Level FlightAware ADS-B
Mon 06:56:57 PM 40.4500 -111.8830 205° Southwest 459 528 38,000  Level FlightAware ADS-B
Mon 06:57:42 PM 40.3610 -111.9380 205° Southwest 460 529 38,000  Level FlightAware ADS-B
Mon 06:58:22 PM 40.2820 -111.9850 204° Southwest 460 529 38,000  Level FlightAware ADS-B
Mon 06:59:07 PM 40.1910 -112.0410 205° Southwest 470 541 38,000  Level FlightAware ADS-B
Mon 06:59:47 PM 40.1100 -112.0900 205° Southwest 472 543 38,000  Level FlightAware ADS-B
Mon 07:00:32 PM 40.0230 -112.1430 205° Southwest 471 542 38,000  Level FlightAware ADS-B
Mon 07:01:12 PM 39.9420 -112.1920 205° Southwest 471 542 38,000  Level FlightAware ADS-B
Mon 07:01:52 PM 39.8650 -112.2380 205° Southwest 473 544 38,000  Level FlightAware ADS-B
Mon 07:02:37 PM 39.7770 -112.2920 205° Southwest 475 547 38,000  Level FlightAware ADS-B
Mon 07:03:12 PM 39.7140 -112.3290 204° Southwest 475 547 38,000  Level FlightAware ADS-B
Mon 07:04:02 PM 39.6290 -112.3810 205° Southwest 475 547 38,000  Level FlightAware ADS-B
Mon 07:04:42 PM 39.5620 -112.4220 205° Southwest 475 547 38,000  Level FlightAware ADS-B
Mon 07:05:22 PM 39.4940 -112.4630 205° Southwest 475 547 38,000  Level FlightAware ADS-B
Mon 07:06:02 PM 39.4260 -112.5040 205° Southwest 475 547 38,000  Level FlightAware ADS-B
Mon 07:06:42 PM 39.3590 -112.5440 205° Southwest 475 547 38,000  Level FlightAware ADS-B
Mon 07:07:32 PM 39.2740 -112.5950 205° Southwest 475 547 38,000  Level FlightAware ADS-B
Mon 07:08:12 PM 39.2060 -112.6360 205° Southwest 475 547 38,000  Level FlightAware ADS-B
Mon 07:08:52 PM 39.1380 -112.6770 205° Southwest 475 547 38,000  Level FlightAware ADS-B
Mon 07:09:32 PM 39.0710 -112.7180 205° Southwest 475 547 38,000  Level FlightAware ADS-B
Mon 07:10:12 PM 39.0030 -112.7580 205° Southwest 475 547 38,000  Level FlightAware ADS-B
Mon 07:11:02 PM 38.9180 -112.8090 205° Southwest 475 547 38,000  Level FlightAware ADS-B
Mon 07:11:42 PM 38.8510 -112.8500 205° Southwest 475 547 38,000  Level FlightAware ADS-B
Mon 07:12:22 PM 38.7830 -112.8900 205° Southwest 475 547 38,000  Level FlightAware ADS-B
Mon 07:12:53 PM 38.5225 -113.0300 205° Southwest 492 566 38,000  Level Salt Lake Center
Mon 07:13:54 PM 38.3967 -113.1031 204° Southwest 496 571 38,000  Level Salt Lake Center
Mon 07:14:56 PM 38.2706 -113.1756 204° Southwest 498 573 38,000  Level Salt Lake Center
Mon 07:21:02 PM 37.5260 -113.6830 204° Southwest 488 562 38,000  Level FlightAware ADS-B
Mon 07:21:42 PM 37.4510 -113.7420 212° Southwest 490 564 38,000  Level FlightAware ADS-B
Mon 07:22:27 PM 37.3640 -113.8110 212° Southwest 487 560 38,000  Level FlightAware ADS-B
Mon 07:23:07 PM 37.2910 -113.8690 212° Southwest 488 562 38,000  Level FlightAware ADS-B
Mon 07:23:52 PM 37.2040 -113.9360 212° Southwest 488 562 38,000  Level FlightAware ADS-B
Mon 07:24:32 PM 37.1240 -113.9980 212° Southwest 486 559 38,000  Level FlightAware ADS-B
Mon 07:25:12 PM 37.0490 -114.0570 212° Southwest 489 563 38,000  Level FlightAware ADS-B
Mon 07:25:57 PM 36.9640 -114.1230 212° Southwest 488 562 38,000  Level FlightAware ADS-B
Mon 07:26:37 PM 36.8850 -114.1850 212° Southwest 488 562 38,000  Level FlightAware ADS-B
Mon 07:27:17 PM 36.8080 -114.2440 212° Southwest 487 560 38,000  Level FlightAware ADS-B
Mon 07:28:02 PM 36.7240 -114.3090 212° Southwest 489 563 38,000  Level FlightAware ADS-B
Mon 07:28:42 PM 36.6450 -114.3700 212° Southwest 491 565 38,000  Level FlightAware ADS-B
Mon 07:29:27 PM 36.5560 -114.4380 212° Southwest 492 566 38,000  Level FlightAware ADS-B
Mon 07:30:07 PM 36.4790 -114.4970 212° Southwest 494 568 38,000  Level FlightAware ADS-B
Mon 07:30:52 PM 36.3940 -114.5620 212° Southwest 496 571 38,000  Level FlightAware ADS-B
Mon 07:31:32 PM 36.3150 -114.6220 211° Southwest 497 572 38,000  Level FlightAware ADS-B
Mon 07:32:12 PM 36.2360 -114.6820 211° Southwest 497 572 38,000  Level FlightAware ADS-B
Mon 07:32:52 PM 36.1570 -114.7420 212° Southwest 498 573 38,000  Level FlightAware ADS-B
Mon 07:33:37 PM 36.0670 -114.8100 211° Southwest 499 574 38,000  Level FlightAware ADS-B
Mon 07:34:22 PM 35.9840 -114.8830 215° Southwest 498 573 38,000  Level FlightAware ADS-B
Mon 07:35:02 PM 35.9230 -114.9640 227° Southwest 497 572 38,000  Level FlightAware ADS-B
Mon 07:35:42 PM 35.8600 -115.0480 227° Southwest 497 572 38,000  Level FlightAware ADS-B
Mon 07:36:27 PM 35.7900 -115.1440 228° Southwest 497 572 38,000  Level FlightAware ADS-B
Mon 07:37:07 PM 35.7280 -115.2280 228° Southwest 498 573 38,000  Level FlightAware ADS-B
Mon 07:37:47 PM 35.6650 -115.3120 227° Southwest 498 573 38,000  Level FlightAware ADS-B
Mon 07:38:32 PM 35.5970 -115.4040 228° Southwest 498 573 38,000  Level FlightAware ADS-B
Mon 07:39:12 PM 35.5340 -115.4880 227° Southwest 498 573 38,000 -282 Level FlightAware ADS-B
Mon 07:39:57 PM 35.4660 -115.5800 228° Southwest 496 571 37,600 -776 Descending FlightAware ADS-B
Mon 07:40:37 PM 35.4010 -115.6660 227° Southwest 496 571 36,900 -918 Descending FlightAware ADS-B
Mon 07:41:22 PM 35.3350 -115.7550 228° Southwest 489 563 36,300 -635 Descending FlightAware ADS-B
Mon 07:42:02 PM 35.2760 -115.8340 228° Southwest 493 567 36,000 -164 Descending FlightAware ADS-B
Mon 07:43:12 PM 35.1710 -115.9720 227° Southwest 492 566 36,000  Level FlightAware ADS-B
Mon 07:43:52 PM 35.1030 -116.0620 227° Southwest 492 566 36,000  Level FlightAware ADS-B
Mon 07:44:37 PM 35.0310 -116.1560 227° Southwest 491 565 36,000  Level FlightAware ADS-B
Mon 07:45:17 PM 34.9720 -116.2350 228° Southwest 486 559 36,000 -1,275 Level FlightAware ADS-B
Mon 07:45:57 PM 34.9110 -116.3140 227° Southwest 481 554 34,300 -2,682 Descending FlightAware ADS-B
Mon 07:46:42 PM 34.8410 -116.4050 227° Southwest 479 551 32,200 -2,471 Descending FlightAware ADS-B
Mon 07:47:22 PM 34.7790 -116.4790 224° Southwest 469 540 30,800 -2,047 Descending FlightAware ADS-B
Mon 07:48:07 PM 34.7020 -116.5540 219° Southwest 458 527 29,300 -1,976 Descending FlightAware ADS-B
Mon 07:48:47 PM 34.6360 -116.6150 217° Southwest 450 518 28,000 -1,341 Descending FlightAware ADS-B
Mon 07:49:32 PM 34.5660 -116.6810 218° Southwest 441 507 27,400 -918 Descending FlightAware ADS-B
Mon 07:50:12 PM 34.5020 -116.7410 218° Southwest 429 494 26,700 -1,200 Descending FlightAware ADS-B
Mon 07:50:52 PM 34.4390 -116.8000 218° Southwest 422 486 25,800 -1,624 Descending FlightAware ADS-B
Mon 07:51:37 PM 34.3690 -116.8650 217° Southwest 414 476 24,400 -1,835 Descending FlightAware ADS-B
Mon 07:52:17 PM 34.3090 -116.9210 218° Southwest 406 467 23,200 -1,765 Descending FlightAware ADS-B
Mon 07:53:02 PM 34.2440 -116.9810 217° Southwest 398 458 21,900 -1,835 Descending FlightAware ADS-B
Mon 07:53:42 PM 34.1850 -117.0360 218° Southwest 390 449 20,600 -1,875 Descending FlightAware ADS-B
Mon 07:54:22 PM 34.1290 -117.0890 218° Southwest 383 441 19,400 -2,118 Descending FlightAware ADS-B
Mon 07:55:07 PM 34.0820 -117.1670 234° Southwest 383 441 17,600 -2,471 Descending FlightAware ADS-B
Mon 07:55:47 PM 34.0510 -117.2430 244° Southwest 367 422 15,900 -2,475 Descending FlightAware ADS-B
Mon 07:56:27 PM 34.0410 -117.3210 261° West 351 404 14,300 -2,118 Descending FlightAware ADS-B
Mon 07:57:12 PM 34.0330 -117.4050 263° West 341 392 12,900 -1,840 Descending FlightAware ADS-B
Mon 07:57:42 PM 34.0300 -117.4630 266° West 338 389 12,000 -1,341 Descending FlightAware ADS-B
Mon 07:58:37 PM 34.0340 -117.5560 273° West 292 336 11,000 -884 Descending FlightAware ADS-B
Mon 07:59:17 PM 34.0290 -117.6230 265° West 289 333 10,600 -600 Descending FlightAware ADS-B
Mon 07:59:57 PM 34.0230 -117.6860 263° West 263 303 10,200 -771 Descending FlightAware ADS-B
Mon 08:00:27 PM 34.0190 -117.7270 263° West 258 297 9,700 -1,091 Descending FlightAware ADS-B
Mon 08:00:52 PM 34.0160 -117.7620 264° West 256 295 9,200 -1,200 Descending FlightAware ADS-B
Mon 08:01:22 PM 34.0120 -117.8050 264° West 247 284 8,600 -1,100 Descending FlightAware ADS-B
Mon 08:01:52 PM 34.0080 -117.8450 263° West 243 280 8,100 -764 Descending FlightAware ADS-B
Mon 08:02:17 PM 34.0050 -117.8780 264° West 223 257 7,900 -218 Descending FlightAware ADS-B
Mon 08:02:47 PM 34.0010 -117.9140 262° West 197 227 7,900 -436 Level FlightAware ADS-B
Mon 08:03:12 PM 33.9990 -117.9390 264° West 195 224 7,500 -873 Descending FlightAware ADS-B
Mon 08:03:42 PM 33.9960 -117.9700 263° West 190 219 7,100 -900 Descending FlightAware ADS-B
Mon 08:04:12 PM 33.9930 -118.0020 264° West 188 216 6,600 -982 Descending FlightAware ADS-B
Mon 08:04:37 PM 33.9900 -118.0290 262° West 190 219 6,200 -1,091 Descending FlightAware ADS-B
Mon 08:05:07 PM 33.9860 -118.0620 262° West 193 222 5,600 -1,100 Descending FlightAware ADS-B
Mon 08:05:37 PM 33.9830 -118.0930 263° West 190 219 5,100 -982 Descending FlightAware ADS-B
Mon 08:06:02 PM 33.9810 -118.1180 264° West 191 220 4,700 -982 Descending FlightAware ADS-B
Mon 08:06:32 PM 33.9780 -118.1500 264° West 193 222 4,200 -982 Descending FlightAware ADS-B
Mon 08:06:57 PM 33.9750 -118.1780 263° West 190 219 3,800 -982 Descending FlightAware ADS-B
Mon 08:07:27 PM 33.9720 -118.2090 263° West 187 215 3,300 -900 Descending FlightAware ADS-B
Mon 08:07:57 PM 33.9690 -118.2370 263° West 183 211 2,900 -873 Descending FlightAware ADS-B
Mon 08:08:22 PM 33.9660 -118.2640 262° West 187 215 2,500 -982 Descending FlightAware ADS-B
Mon 08:08:52 PM 33.9630 -118.2950 263° West 188 216 2,000 -960 Descending FlightAware ADS-B
Mon 08:09:12 PM 33.9610 -118.3130 262° West 179 206 1,700 -764 Descending FlightAware ADS-B
Mon 08:09:47 PM 33.9590 -118.3390 265° West 150 173 1,300 -700 Descending FlightAware ADS-B
Mon 08:10:12 PM 33.9570 -118.3600 263° West 139 160 1,000 -400 Descending FlightAware ADS-B
Mon 08:10:47 PM 33.9540 -118.3820 261° West 138 159 900 -171 Descending FlightAware ADS-B

Login

Don't have an account? Register now (free) for customized features, flight alerts, and more!